<?xml version="1.0" encoding="UTF-8" standalone="no" ?>
<gpx xmlns="http://www.topografix.com/GPX/1/1" xmlns:xsi="http://www.w3.org/2001/XMLSchema-instance" xsi:schemaLocation="http://www.topografix.com/GPX/1/1 http://www.topografix.com/GPX/1/1/gpx.xsd" version="1.1" creator="VisuGPX - https://www.visugpx.com">
  <metadata>
    <name>Seillons 27km</name>
    <desc><![CDATA[parcours très facile. Aller et retour par le vallon des abeilles. Au KM 7.5, descente un peu raide mais sans difficulté technique particulière]]></desc>
  </metadata>
  <trk>
    <name><![CDATA[2023-02-12 09:04]]></name>
    <desc><![CDATA[<p>Heure de départ: 06/29/2003 09:04</p><p>Heure d'arrivée: 06/29/2003 12:00</p><p>Distance: 27,2 km (02:56)</p><p>Temps déplacement: 02:19</p><p>Vitesse moyenne: 9,27 km/h</p><p>Vitesse moyenne mouv.: 11,73 km/h</p><p>Vitesse Max.: 30,35km/h</p><p>Altitude minimale: 216 m</p><p>Altitude maximale: 461 m</p><p>Vitesse de montée: 424,1 m/h</p><p>Vitesse de descente: -676 m/h</p><p>Gain d'altitude: 659 m</p><p>Perte d'altitude: -675 m</p><p>Temps de montée: 01:33</p><p>Temps de descente: 00:59</p><hr align="center" width="480" style="height: 2px; width: 517px"/>]]></desc>
    <extensions>
      <line xmlns="http://www.topografix.com/GPX/gpx_style/0/2">
        <color>0000FF</color>
        <width>4</width>
      </line>
    </extensions>
    <trkseg>
      <trkpt lat="43.50344" lon="5.88697">
        <ele>266.57</ele>
        <time>2003-06-29T07:04:03Z</time>
      </trkpt>
      <trkpt lat="43.50364" lon="5.88688">
        <ele>257.49</ele>
        <time>2003-06-29T07:08:28Z</time>
      </trkpt>
      <trkpt lat="43.50366" lon="5.88662">
        <ele>256.39</ele>
        <time>2003-06-29T07:08:42Z</time>
      </trkpt>
      <trkpt lat="43.5038" lon="5.88646">
        <ele>254.72</ele>
        <time>2003-06-29T07:08:53Z</time>
      </trkpt>
      <trkpt lat="43.50396" lon="5.88633">
        <ele>253.45</ele>
        <time>2003-06-29T07:10:16Z</time>
      </trkpt>
      <trkpt lat="43.50413" lon="5.88623">
        <ele>253.27</ele>
        <time>2003-06-29T07:10:24Z</time>
      </trkpt>
      <trkpt lat="43.50431" lon="5.88611">
        <ele>252.3</ele>
        <time>2003-06-29T07:10:32Z</time>
      </trkpt>
      <trkpt lat="43.5045" lon="5.88598">
        <ele>251.3</ele>
        <time>2003-06-29T07:10:40Z</time>
      </trkpt>
      <trkpt lat="43.50467" lon="5.88586">
        <ele>250.46</ele>
        <time>2003-06-29T07:10:47Z</time>
      </trkpt>
      <trkpt lat="43.50485" lon="5.88572">
        <ele>249.61</ele>
        <time>2003-06-29T07:10:54Z</time>
      </trkpt>
      <trkpt lat="43.50501" lon="5.88556">
        <ele>251</ele>
        <time>2003-06-29T07:11:02Z</time>
      </trkpt>
      <trkpt lat="43.50519" lon="5.88542">
        <ele>253.42</ele>
        <time>2003-06-29T07:11:10Z</time>
      </trkpt>
      <trkpt lat="43.50532" lon="5.88525">
        <ele>252.74</ele>
        <time>2003-06-29T07:11:17Z</time>
      </trkpt>
      <trkpt lat="43.50546" lon="5.88508">
        <ele>252.66</ele>
        <time>2003-06-29T07:11:25Z</time>
      </trkpt>
      <trkpt lat="43.50561" lon="5.8849">
        <ele>253.49</ele>
        <time>2003-06-29T07:11:33Z</time>
      </trkpt>
      <trkpt lat="43.50577" lon="5.88477">
        <ele>252.61</ele>
        <time>2003-06-29T07:11:39Z</time>
      </trkpt>
      <trkpt lat="43.50593" lon="5.88463">
        <ele>252.1</ele>
        <time>2003-06-29T07:11:46Z</time>
      </trkpt>
      <trkpt lat="43.50614" lon="5.88458">
        <ele>253.03</ele>
        <time>2003-06-29T07:11:54Z</time>
      </trkpt>
      <trkpt lat="43.50632" lon="5.88451">
        <ele>255.68</ele>
        <time>2003-06-29T07:12:02Z</time>
      </trkpt>
      <trkpt lat="43.5065" lon="5.88444">
        <ele>256.09</ele>
        <time>2003-06-29T07:12:09Z</time>
      </trkpt>
      <trkpt lat="43.5067" lon="5.88435">
        <ele>256.83</ele>
        <time>2003-06-29T07:12:16Z</time>
      </trkpt>
      <trkpt lat="43.50684" lon="5.88419">
        <ele>259</ele>
        <time>2003-06-29T07:12:23Z</time>
      </trkpt>
      <trkpt lat="43.50694" lon="5.88397">
        <ele>261.71</ele>
        <time>2003-06-29T07:12:32Z</time>
      </trkpt>
      <trkpt lat="43.50707" lon="5.88379">
        <ele>262.09</ele>
        <time>2003-06-29T07:12:39Z</time>
      </trkpt>
      <trkpt lat="43.50719" lon="5.88358">
        <ele>261.87</ele>
        <time>2003-06-29T07:12:47Z</time>
      </trkpt>
      <trkpt lat="43.50728" lon="5.88336">
        <ele>262.75</ele>
        <time>2003-06-29T07:12:55Z</time>
      </trkpt>
      <trkpt lat="43.50739" lon="5.88315">
        <ele>264.99</ele>
        <time>2003-06-29T07:13:02Z</time>
      </trkpt>
      <trkpt lat="43.50756" lon="5.883">
        <ele>266.72</ele>
        <time>2003-06-29T07:13:10Z</time>
      </trkpt>
      <trkpt lat="43.50775" lon="5.88291">
        <ele>267.07</ele>
        <time>2003-06-29T07:13:18Z</time>
      </trkpt>
      <trkpt lat="43.50796" lon="5.88292">
        <ele>268.03</ele>
        <time>2003-06-29T07:13:27Z</time>
      </trkpt>
      <trkpt lat="43.50809" lon="5.8831">
        <ele>269.62</ele>
        <time>2003-06-29T07:13:34Z</time>
      </trkpt>
      <trkpt lat="43.50818" lon="5.88332">
        <ele>270.59</ele>
        <time>2003-06-29T07:13:41Z</time>
      </trkpt>
      <trkpt lat="43.50822" lon="5.88359">
        <ele>270.21</ele>
        <time>2003-06-29T07:13:49Z</time>
      </trkpt>
      <trkpt lat="43.5082" lon="5.88385">
        <ele>270.15</ele>
        <time>2003-06-29T07:13:57Z</time>
      </trkpt>
      <trkpt lat="43.50831" lon="5.88406">
        <ele>270.77</ele>
        <time>2003-06-29T07:14:04Z</time>
      </trkpt>
      <trkpt lat="43.50849" lon="5.8841">
        <ele>270.85</ele>
        <time>2003-06-29T07:14:12Z</time>
      </trkpt>
      <trkpt lat="43.50868" lon="5.88403">
        <ele>272.84</ele>
        <time>2003-06-29T07:14:20Z</time>
      </trkpt>
      <trkpt lat="43.50886" lon="5.88396">
        <ele>275.19</ele>
        <time>2003-06-29T07:14:27Z</time>
      </trkpt>
      <trkpt lat="43.50905" lon="5.88394">
        <ele>278.38</ele>
        <time>2003-06-29T07:14:34Z</time>
      </trkpt>
      <trkpt lat="43.50923" lon="5.88387">
        <ele>281.59</ele>
        <time>2003-06-29T07:14:42Z</time>
      </trkpt>
      <trkpt lat="43.50943" lon="5.8838">
        <ele>280.24</ele>
        <time>2003-06-29T07:14:49Z</time>
      </trkpt>
      <trkpt lat="43.50961" lon="5.8837">
        <ele>278.62</ele>
        <time>2003-06-29T07:14:56Z</time>
      </trkpt>
      <trkpt lat="43.50979" lon="5.88362">
        <ele>279.72</ele>
        <time>2003-06-29T07:15:03Z</time>
      </trkpt>
      <trkpt lat="43.50997" lon="5.88355">
        <ele>281.12</ele>
        <time>2003-06-29T07:15:10Z</time>
      </trkpt>
      <trkpt lat="43.51019" lon="5.88349">
        <ele>286.48</ele>
        <time>2003-06-29T07:15:19Z</time>
      </trkpt>
      <trkpt lat="43.51038" lon="5.88346">
        <ele>290.82</ele>
        <time>2003-06-29T07:15:26Z</time>
      </trkpt>
      <trkpt lat="43.51057" lon="5.88343">
        <ele>295.96</ele>
        <time>2003-06-29T07:15:34Z</time>
      </trkpt>
      <trkpt lat="43.51075" lon="5.88341">
        <ele>299.4</ele>
        <time>2003-06-29T07:15:41Z</time>
      </trkpt>
      <trkpt lat="43.51094" lon="5.88336">
        <ele>300.13</ele>
        <time>2003-06-29T07:15:48Z</time>
      </trkpt>
      <trkpt lat="43.51111" lon="5.88327">
        <ele>301.44</ele>
        <time>2003-06-29T07:15:54Z</time>
      </trkpt>
      <trkpt lat="43.51131" lon="5.88325">
        <ele>301.56</ele>
        <time>2003-06-29T07:16:02Z</time>
      </trkpt>
      <trkpt lat="43.51148" lon="5.88337">
        <ele>300.83</ele>
        <time>2003-06-29T07:16:09Z</time>
      </trkpt>
      <trkpt lat="43.51156" lon="5.88364">
        <ele>298.01</ele>
        <time>2003-06-29T07:16:16Z</time>
      </trkpt>
      <trkpt lat="43.51159" lon="5.8839">
        <ele>295.07</ele>
        <time>2003-06-29T07:16:23Z</time>
      </trkpt>
      <trkpt lat="43.51159" lon="5.88415">
        <ele>294.43</ele>
        <time>2003-06-29T07:16:29Z</time>
      </trkpt>
      <trkpt lat="43.51177" lon="5.88427">
        <ele>292.41</ele>
        <time>2003-06-29T07:16:38Z</time>
      </trkpt>
      <trkpt lat="43.51191" lon="5.88411">
        <ele>290.6</ele>
        <time>2003-06-29T07:16:45Z</time>
      </trkpt>
      <trkpt lat="43.5121" lon="5.88405">
        <ele>290.17</ele>
        <time>2003-06-29T07:16:53Z</time>
      </trkpt>
      <trkpt lat="43.51227" lon="5.88415">
        <ele>290.54</ele>
        <time>2003-06-29T07:17:04Z</time>
      </trkpt>
      <trkpt lat="43.51242" lon="5.88428">
        <ele>292.24</ele>
        <time>2003-06-29T07:17:13Z</time>
      </trkpt>
      <trkpt lat="43.51259" lon="5.8842">
        <ele>290.58</ele>
        <time>2003-06-29T07:17:22Z</time>
      </trkpt>
      <trkpt lat="43.51272" lon="5.884">
        <ele>289.12</ele>
        <time>2003-06-29T07:17:29Z</time>
      </trkpt>
      <trkpt lat="43.51284" lon="5.88378">
        <ele>287.22</ele>
        <time>2003-06-29T07:17:35Z</time>
      </trkpt>
      <trkpt lat="43.51287" lon="5.88353">
        <ele>286.21</ele>
        <time>2003-06-29T07:17:43Z</time>
      </trkpt>
      <trkpt lat="43.51299" lon="5.88332">
        <ele>286.6</ele>
        <time>2003-06-29T07:17:52Z</time>
      </trkpt>
      <trkpt lat="43.51309" lon="5.88309">
        <ele>286.77</ele>
        <time>2003-06-29T07:18:00Z</time>
      </trkpt>
      <trkpt lat="43.51327" lon="5.88296">
        <ele>287.52</ele>
        <time>2003-06-29T07:18:09Z</time>
      </trkpt>
      <trkpt lat="43.51346" lon="5.88287">
        <ele>287.77</ele>
        <time>2003-06-29T07:18:17Z</time>
      </trkpt>
      <trkpt lat="43.51365" lon="5.88287">
        <ele>287.87</ele>
        <time>2003-06-29T07:18:26Z</time>
      </trkpt>
      <trkpt lat="43.51382" lon="5.88297">
        <ele>287.67</ele>
        <time>2003-06-29T07:18:31Z</time>
      </trkpt>
      <trkpt lat="43.51396" lon="5.88312">
        <ele>288.72</ele>
        <time>2003-06-29T07:18:39Z</time>
      </trkpt>
      <trkpt lat="43.5141" lon="5.88331">
        <ele>290.22</ele>
        <time>2003-06-29T07:18:47Z</time>
      </trkpt>
      <trkpt lat="43.51425" lon="5.88347">
        <ele>291.14</ele>
        <time>2003-06-29T07:18:54Z</time>
      </trkpt>
      <trkpt lat="43.51441" lon="5.88359">
        <ele>291.84</ele>
        <time>2003-06-29T07:19:01Z</time>
      </trkpt>
      <trkpt lat="43.5146" lon="5.88358">
        <ele>291.91</ele>
        <time>2003-06-29T07:19:09Z</time>
      </trkpt>
      <trkpt lat="43.51476" lon="5.88346">
        <ele>292.14</ele>
        <time>2003-06-29T07:19:17Z</time>
      </trkpt>
      <trkpt lat="43.5149" lon="5.88328">
        <ele>292.95</ele>
        <time>2003-06-29T07:19:25Z</time>
      </trkpt>
      <trkpt lat="43.51502" lon="5.88308">
        <ele>292.49</ele>
        <time>2003-06-29T07:19:32Z</time>
      </trkpt>
      <trkpt lat="43.51515" lon="5.88288">
        <ele>292.84</ele>
        <time>2003-06-29T07:19:41Z</time>
      </trkpt>
      <trkpt lat="43.51528" lon="5.88268">
        <ele>294.33</ele>
        <time>2003-06-29T07:19:51Z</time>
      </trkpt>
      <trkpt lat="43.51546" lon="5.88258">
        <ele>295.26</ele>
        <time>2003-06-29T07:20:00Z</time>
      </trkpt>
      <trkpt lat="43.51564" lon="5.88259">
        <ele>295.55</ele>
        <time>2003-06-29T07:20:08Z</time>
      </trkpt>
      <trkpt lat="43.51578" lon="5.88276">
        <ele>296.66</ele>
        <time>2003-06-29T07:20:15Z</time>
      </trkpt>
      <trkpt lat="43.51591" lon="5.88294">
        <ele>295.71</ele>
        <time>2003-06-29T07:20:22Z</time>
      </trkpt>
      <trkpt lat="43.516" lon="5.88319">
        <ele>295.99</ele>
        <time>2003-06-29T07:20:30Z</time>
      </trkpt>
      <trkpt lat="43.51611" lon="5.88342">
        <ele>296.34</ele>
        <time>2003-06-29T07:20:38Z</time>
      </trkpt>
      <trkpt lat="43.51629" lon="5.88347">
        <ele>297.4</ele>
        <time>2003-06-29T07:20:48Z</time>
      </trkpt>
      <trkpt lat="43.51646" lon="5.88331">
        <ele>297.09</ele>
        <time>2003-06-29T07:20:57Z</time>
      </trkpt>
      <trkpt lat="43.51657" lon="5.88309">
        <ele>298.41</ele>
        <time>2003-06-29T07:21:06Z</time>
      </trkpt>
      <trkpt lat="43.5167" lon="5.88291">
        <ele>299.17</ele>
        <time>2003-06-29T07:21:15Z</time>
      </trkpt>
      <trkpt lat="43.51684" lon="5.88273">
        <ele>299.54</ele>
        <time>2003-06-29T07:21:24Z</time>
      </trkpt>
      <trkpt lat="43.51702" lon="5.88262">
        <ele>301.02</ele>
        <time>2003-06-29T07:21:34Z</time>
      </trkpt>
      <trkpt lat="43.51719" lon="5.88272">
        <ele>303.22</ele>
        <time>2003-06-29T07:21:43Z</time>
      </trkpt>
      <trkpt lat="43.51734" lon="5.8829">
        <ele>305.54</ele>
        <time>2003-06-29T07:21:52Z</time>
      </trkpt>
      <trkpt lat="43.51749" lon="5.88304">
        <ele>306.4</ele>
        <time>2003-06-29T07:22:00Z</time>
      </trkpt>
      <trkpt lat="43.51764" lon="5.88289">
        <ele>307.58</ele>
        <time>2003-06-29T07:22:07Z</time>
      </trkpt>
      <trkpt lat="43.51779" lon="5.8827">
        <ele>305.57</ele>
        <time>2003-06-29T07:22:16Z</time>
      </trkpt>
      <trkpt lat="43.51793" lon="5.88252">
        <ele>303.64</ele>
        <time>2003-06-29T07:22:25Z</time>
      </trkpt>
      <trkpt lat="43.51808" lon="5.88237">
        <ele>301.77</ele>
        <time>2003-06-29T07:22:34Z</time>
      </trkpt>
      <trkpt lat="43.51824" lon="5.8822">
        <ele>299.26</ele>
        <time>2003-06-29T07:22:43Z</time>
      </trkpt>
      <trkpt lat="43.51841" lon="5.88209">
        <ele>299.44</ele>
        <time>2003-06-29T07:22:51Z</time>
      </trkpt>
      <trkpt lat="43.5186" lon="5.88204">
        <ele>300.7</ele>
        <time>2003-06-29T07:23:00Z</time>
      </trkpt>
      <trkpt lat="43.51878" lon="5.88199">
        <ele>303.12</ele>
        <time>2003-06-29T07:23:09Z</time>
      </trkpt>
      <trkpt lat="43.51896" lon="5.88196">
        <ele>308.8</ele>
        <time>2003-06-29T07:23:18Z</time>
      </trkpt>
      <trkpt lat="43.51915" lon="5.88191">
        <ele>315</ele>
        <time>2003-06-29T07:23:28Z</time>
      </trkpt>
      <trkpt lat="43.51933" lon="5.88186">
        <ele>321.71</ele>
        <time>2003-06-29T07:23:38Z</time>
      </trkpt>
      <trkpt lat="43.5195" lon="5.88192">
        <ele>325</ele>
        <time>2003-06-29T07:23:45Z</time>
      </trkpt>
      <trkpt lat="43.51967" lon="5.88205">
        <ele>325.8</ele>
        <time>2003-06-29T07:23:52Z</time>
      </trkpt>
      <trkpt lat="43.51981" lon="5.88223">
        <ele>326.94</ele>
        <time>2003-06-29T07:24:00Z</time>
      </trkpt>
      <trkpt lat="43.52" lon="5.88226">
        <ele>327.65</ele>
        <time>2003-06-29T07:24:10Z</time>
      </trkpt>
      <trkpt lat="43.52019" lon="5.88216">
        <ele>328.9</ele>
        <time>2003-06-29T07:24:18Z</time>
      </trkpt>
      <trkpt lat="43.52038" lon="5.8821">
        <ele>331.32</ele>
        <time>2003-06-29T07:24:27Z</time>
      </trkpt>
      <trkpt lat="43.52055" lon="5.88201">
        <ele>332.15</ele>
        <time>2003-06-29T07:24:34Z</time>
      </trkpt>
      <trkpt lat="43.52071" lon="5.88189">
        <ele>330.3</ele>
        <time>2003-06-29T07:24:40Z</time>
      </trkpt>
      <trkpt lat="43.52089" lon="5.88179">
        <ele>330.17</ele>
        <time>2003-06-29T07:24:48Z</time>
      </trkpt>
      <trkpt lat="43.52106" lon="5.88168">
        <ele>329.21</ele>
        <time>2003-06-29T07:24:55Z</time>
      </trkpt>
      <trkpt lat="43.52124" lon="5.88158">
        <ele>330.22</ele>
        <time>2003-06-29T07:25:06Z</time>
      </trkpt>
      <trkpt lat="43.52144" lon="5.88165">
        <ele>331.05</ele>
        <time>2003-06-29T07:25:14Z</time>
      </trkpt>
      <trkpt lat="43.52162" lon="5.88174">
        <ele>331.65</ele>
        <time>2003-06-29T07:25:21Z</time>
      </trkpt>
      <trkpt lat="43.52181" lon="5.88171">
        <ele>332.34</ele>
        <time>2003-06-29T07:25:28Z</time>
      </trkpt>
      <trkpt lat="43.52199" lon="5.88162">
        <ele>331.29</ele>
        <time>2003-06-29T07:25:36Z</time>
      </trkpt>
      <trkpt lat="43.52216" lon="5.88146">
        <ele>328.14</ele>
        <time>2003-06-29T07:25:42Z</time>
      </trkpt>
      <trkpt lat="43.52228" lon="5.88127">
        <ele>327.02</ele>
        <time>2003-06-29T07:25:49Z</time>
      </trkpt>
      <trkpt lat="43.52236" lon="5.88103">
        <ele>326.6</ele>
        <time>2003-06-29T07:25:58Z</time>
      </trkpt>
      <trkpt lat="43.52244" lon="5.8808">
        <ele>326.44</ele>
        <time>2003-06-29T07:26:07Z</time>
      </trkpt>
      <trkpt lat="43.52249" lon="5.88056">
        <ele>327.82</ele>
        <time>2003-06-29T07:26:15Z</time>
      </trkpt>
      <trkpt lat="43.52262" lon="5.88036">
        <ele>327.03</ele>
        <time>2003-06-29T07:26:23Z</time>
      </trkpt>
      <trkpt lat="43.52277" lon="5.88023">
        <ele>327.64</ele>
        <time>2003-06-29T07:26:33Z</time>
      </trkpt>
      <trkpt lat="43.52296" lon="5.88016">
        <ele>328.54</ele>
        <time>2003-06-29T07:26:43Z</time>
      </trkpt>
      <trkpt lat="43.52317" lon="5.88018">
        <ele>329.82</ele>
        <time>2003-06-29T07:26:52Z</time>
      </trkpt>
      <trkpt lat="43.52333" lon="5.88027">
        <ele>330.34</ele>
        <time>2003-06-29T07:26:57Z</time>
      </trkpt>
      <trkpt lat="43.5235" lon="5.88038">
        <ele>330.86</ele>
        <time>2003-06-29T07:27:05Z</time>
      </trkpt>
      <trkpt lat="43.5237" lon="5.88045">
        <ele>331.07</ele>
        <time>2003-06-29T07:27:14Z</time>
      </trkpt>
      <trkpt lat="43.52389" lon="5.88043">
        <ele>331.68</ele>
        <time>2003-06-29T07:27:23Z</time>
      </trkpt>
      <trkpt lat="43.52405" lon="5.8803">
        <ele>331.2</ele>
        <time>2003-06-29T07:27:30Z</time>
      </trkpt>
      <trkpt lat="43.52407" lon="5.88005">
        <ele>329.22</ele>
        <time>2003-06-29T07:27:42Z</time>
      </trkpt>
      <trkpt lat="43.52409" lon="5.87978">
        <ele>326.6</ele>
        <time>2003-06-29T07:27:53Z</time>
      </trkpt>
      <trkpt lat="43.52408" lon="5.87951">
        <ele>325.91</ele>
        <time>2003-06-29T07:28:01Z</time>
      </trkpt>
      <trkpt lat="43.52417" lon="5.87926">
        <ele>325.62</ele>
        <time>2003-06-29T07:28:11Z</time>
      </trkpt>
      <trkpt lat="43.52432" lon="5.8791">
        <ele>324.92</ele>
        <time>2003-06-29T07:28:21Z</time>
      </trkpt>
      <trkpt lat="43.52449" lon="5.87904">
        <ele>323.39</ele>
        <time>2003-06-29T07:28:31Z</time>
      </trkpt>
      <trkpt lat="43.52468" lon="5.87909">
        <ele>324.04</ele>
        <time>2003-06-29T07:28:38Z</time>
      </trkpt>
      <trkpt lat="43.52484" lon="5.87923">
        <ele>325.05</ele>
        <time>2003-06-29T07:28:45Z</time>
      </trkpt>
      <trkpt lat="43.52498" lon="5.87942">
        <ele>325.96</ele>
        <time>2003-06-29T07:28:54Z</time>
      </trkpt>
      <trkpt lat="43.52516" lon="5.87939">
        <ele>327.24</ele>
        <time>2003-06-29T07:29:05Z</time>
      </trkpt>
      <trkpt lat="43.52533" lon="5.87925">
        <ele>328.64</ele>
        <time>2003-06-29T07:29:13Z</time>
      </trkpt>
      <trkpt lat="43.52547" lon="5.87906">
        <ele>330.32</ele>
        <time>2003-06-29T07:29:22Z</time>
      </trkpt>
      <trkpt lat="43.52559" lon="5.87885">
        <ele>331.64</ele>
        <time>2003-06-29T07:29:32Z</time>
      </trkpt>
      <trkpt lat="43.52557" lon="5.87858">
        <ele>332.52</ele>
        <time>2003-06-29T07:29:41Z</time>
      </trkpt>
      <trkpt lat="43.52551" lon="5.87832">
        <ele>333.44</ele>
        <time>2003-06-29T07:29:53Z</time>
      </trkpt>
      <trkpt lat="43.52553" lon="5.87805">
        <ele>334.71</ele>
        <time>2003-06-29T07:30:02Z</time>
      </trkpt>
      <trkpt lat="43.52561" lon="5.87783">
        <ele>334.75</ele>
        <time>2003-06-29T07:30:09Z</time>
      </trkpt>
      <trkpt lat="43.5257" lon="5.87761">
        <ele>332.62</ele>
        <time>2003-06-29T07:30:18Z</time>
      </trkpt>
      <trkpt lat="43.52571" lon="5.87734">
        <ele>330.54</ele>
        <time>2003-06-29T07:30:27Z</time>
      </trkpt>
      <trkpt lat="43.52566" lon="5.87708">
        <ele>330.63</ele>
        <time>2003-06-29T07:30:36Z</time>
      </trkpt>
      <trkpt lat="43.5256" lon="5.87681">
        <ele>331.16</ele>
        <time>2003-06-29T07:30:45Z</time>
      </trkpt>
      <trkpt lat="43.52552" lon="5.87659">
        <ele>331.59</ele>
        <time>2003-06-29T07:30:53Z</time>
      </trkpt>
      <trkpt lat="43.52541" lon="5.87638">
        <ele>333.53</ele>
        <time>2003-06-29T07:31:00Z</time>
      </trkpt>
      <trkpt lat="43.52533" lon="5.87615">
        <ele>334.01</ele>
        <time>2003-06-29T07:31:10Z</time>
      </trkpt>
      <trkpt lat="43.52528" lon="5.87592">
        <ele>332.22</ele>
        <time>2003-06-29T07:31:19Z</time>
      </trkpt>
      <trkpt lat="43.52535" lon="5.87567">
        <ele>332.51</ele>
        <time>2003-06-29T07:31:29Z</time>
      </trkpt>
      <trkpt lat="43.52545" lon="5.87546">
        <ele>333.54</ele>
        <time>2003-06-29T07:31:37Z</time>
      </trkpt>
      <trkpt lat="43.5256" lon="5.8753">
        <ele>333.87</ele>
        <time>2003-06-29T07:31:44Z</time>
      </trkpt>
      <trkpt lat="43.52574" lon="5.87513">
        <ele>334.63</ele>
        <time>2003-06-29T07:31:52Z</time>
      </trkpt>
      <trkpt lat="43.52591" lon="5.87497">
        <ele>335.27</ele>
        <time>2003-06-29T07:32:02Z</time>
      </trkpt>
      <trkpt lat="43.526" lon="5.87475">
        <ele>335.94</ele>
        <time>2003-06-29T07:32:12Z</time>
      </trkpt>
      <trkpt lat="43.5262" lon="5.87468">
        <ele>336.47</ele>
        <time>2003-06-29T07:32:21Z</time>
      </trkpt>
      <trkpt lat="43.52635" lon="5.87455">
        <ele>338.23</ele>
        <time>2003-06-29T07:32:28Z</time>
      </trkpt>
      <trkpt lat="43.52637" lon="5.87429">
        <ele>340.22</ele>
        <time>2003-06-29T07:32:38Z</time>
      </trkpt>
      <trkpt lat="43.52635" lon="5.87404">
        <ele>341.51</ele>
        <time>2003-06-29T07:32:49Z</time>
      </trkpt>
      <trkpt lat="43.52625" lon="5.87382">
        <ele>342.78</ele>
        <time>2003-06-29T07:32:56Z</time>
      </trkpt>
      <trkpt lat="43.52635" lon="5.87359">
        <ele>345.91</ele>
        <time>2003-06-29T07:33:04Z</time>
      </trkpt>
      <trkpt lat="43.52648" lon="5.8734">
        <ele>346.42</ele>
        <time>2003-06-29T07:33:11Z</time>
      </trkpt>
      <trkpt lat="43.52661" lon="5.8732">
        <ele>347.76</ele>
        <time>2003-06-29T07:33:20Z</time>
      </trkpt>
      <trkpt lat="43.52669" lon="5.87298">
        <ele>352.17</ele>
        <time>2003-06-29T07:34:18Z</time>
      </trkpt>
      <trkpt lat="43.52684" lon="5.8728">
        <ele>351.77</ele>
        <time>2003-06-29T07:34:29Z</time>
      </trkpt>
      <trkpt lat="43.52698" lon="5.87264">
        <ele>351.85</ele>
        <time>2003-06-29T07:34:39Z</time>
      </trkpt>
      <trkpt lat="43.5271" lon="5.87241">
        <ele>351.99</ele>
        <time>2003-06-29T07:34:48Z</time>
      </trkpt>
      <trkpt lat="43.52716" lon="5.87215">
        <ele>351</ele>
        <time>2003-06-29T07:34:57Z</time>
      </trkpt>
      <trkpt lat="43.52712" lon="5.8719">
        <ele>350.57</ele>
        <time>2003-06-29T07:35:05Z</time>
      </trkpt>
      <trkpt lat="43.52702" lon="5.87168">
        <ele>350.66</ele>
        <time>2003-06-29T07:35:12Z</time>
      </trkpt>
      <trkpt lat="43.52699" lon="5.87141">
        <ele>352.08</ele>
        <time>2003-06-29T07:35:19Z</time>
      </trkpt>
      <trkpt lat="43.52703" lon="5.87115">
        <ele>354.59</ele>
        <time>2003-06-29T07:35:26Z</time>
      </trkpt>
      <trkpt lat="43.52714" lon="5.87094">
        <ele>354</ele>
        <time>2003-06-29T07:35:34Z</time>
      </trkpt>
      <trkpt lat="43.52728" lon="5.87075">
        <ele>352.1</ele>
        <time>2003-06-29T07:35:41Z</time>
      </trkpt>
      <trkpt lat="43.52735" lon="5.87052">
        <ele>350.97</ele>
        <time>2003-06-29T07:35:49Z</time>
      </trkpt>
      <trkpt lat="43.52745" lon="5.8703">
        <ele>353.02</ele>
        <time>2003-06-29T07:35:58Z</time>
      </trkpt>
      <trkpt lat="43.5275" lon="5.87005">
        <ele>352.62</ele>
        <time>2003-06-29T07:36:07Z</time>
      </trkpt>
      <trkpt lat="43.52753" lon="5.8698">
        <ele>352.15</ele>
        <time>2003-06-29T07:36:15Z</time>
      </trkpt>
      <trkpt lat="43.5275" lon="5.86953">
        <ele>351.57</ele>
        <time>2003-06-29T07:36:24Z</time>
      </trkpt>
      <trkpt lat="43.52737" lon="5.86932">
        <ele>351.22</ele>
        <time>2003-06-29T07:36:31Z</time>
      </trkpt>
      <trkpt lat="43.5273" lon="5.86909">
        <ele>351.05</ele>
        <time>2003-06-29T07:36:39Z</time>
      </trkpt>
      <trkpt lat="43.52724" lon="5.86886">
        <ele>352.58</ele>
        <time>2003-06-29T07:36:47Z</time>
      </trkpt>
      <trkpt lat="43.52719" lon="5.86862">
        <ele>355.92</ele>
        <time>2003-06-29T07:36:55Z</time>
      </trkpt>
      <trkpt lat="43.52723" lon="5.86835">
        <ele>359.16</ele>
        <time>2003-06-29T07:37:04Z</time>
      </trkpt>
      <trkpt lat="43.52736" lon="5.86817">
        <ele>361.92</ele>
        <time>2003-06-29T07:37:11Z</time>
      </trkpt>
      <trkpt lat="43.52745" lon="5.86793">
        <ele>362.29</ele>
        <time>2003-06-29T07:37:20Z</time>
      </trkpt>
      <trkpt lat="43.52758" lon="5.86771">
        <ele>363.22</ele>
        <time>2003-06-29T07:37:27Z</time>
      </trkpt>
      <trkpt lat="43.52769" lon="5.86749">
        <ele>364.62</ele>
        <time>2003-06-29T07:37:35Z</time>
      </trkpt>
      <trkpt lat="43.52781" lon="5.86728">
        <ele>364.96</ele>
        <time>2003-06-29T07:37:44Z</time>
      </trkpt>
      <trkpt lat="43.5279" lon="5.86706">
        <ele>365.34</ele>
        <time>2003-06-29T07:37:52Z</time>
      </trkpt>
      <trkpt lat="43.52803" lon="5.86689">
        <ele>366.33</ele>
        <time>2003-06-29T07:38:01Z</time>
      </trkpt>
      <trkpt lat="43.52819" lon="5.86675">
        <ele>366.47</ele>
        <time>2003-06-29T07:38:09Z</time>
      </trkpt>
      <trkpt lat="43.52828" lon="5.86653">
        <ele>368.71</ele>
        <time>2003-06-29T07:38:18Z</time>
      </trkpt>
      <trkpt lat="43.52826" lon="5.86628">
        <ele>370.65</ele>
        <time>2003-06-29T07:38:28Z</time>
      </trkpt>
      <trkpt lat="43.5282" lon="5.86603">
        <ele>371.5</ele>
        <time>2003-06-29T07:38:38Z</time>
      </trkpt>
      <trkpt lat="43.52809" lon="5.86581">
        <ele>372.72</ele>
        <time>2003-06-29T07:38:47Z</time>
      </trkpt>
      <trkpt lat="43.52813" lon="5.86556">
        <ele>374.79</ele>
        <time>2003-06-29T07:38:55Z</time>
      </trkpt>
      <trkpt lat="43.5282" lon="5.86533">
        <ele>378.17</ele>
        <time>2003-06-29T07:39:04Z</time>
      </trkpt>
      <trkpt lat="43.52832" lon="5.86513">
        <ele>380.13</ele>
        <time>2003-06-29T07:39:13Z</time>
      </trkpt>
      <trkpt lat="43.52845" lon="5.86493">
        <ele>382.89</ele>
        <time>2003-06-29T07:39:23Z</time>
      </trkpt>
      <trkpt lat="43.52859" lon="5.86475">
        <ele>384.54</ele>
        <time>2003-06-29T07:39:33Z</time>
      </trkpt>
      <trkpt lat="43.52876" lon="5.86461">
        <ele>385.9</ele>
        <time>2003-06-29T07:39:41Z</time>
      </trkpt>
      <trkpt lat="43.52888" lon="5.8644">
        <ele>386.67</ele>
        <time>2003-06-29T07:39:50Z</time>
      </trkpt>
      <trkpt lat="43.52902" lon="5.86423">
        <ele>387.07</ele>
        <time>2003-06-29T07:40:00Z</time>
      </trkpt>
      <trkpt lat="43.52916" lon="5.86406">
        <ele>387.59</ele>
        <time>2003-06-29T07:40:08Z</time>
      </trkpt>
      <trkpt lat="43.52929" lon="5.86385">
        <ele>389.04</ele>
        <time>2003-06-29T07:40:18Z</time>
      </trkpt>
      <trkpt lat="43.52944" lon="5.8637">
        <ele>389.73</ele>
        <time>2003-06-29T07:40:27Z</time>
      </trkpt>
      <trkpt lat="43.52958" lon="5.86354">
        <ele>389.77</ele>
        <time>2003-06-29T07:40:36Z</time>
      </trkpt>
      <trkpt lat="43.52976" lon="5.86341">
        <ele>389.65</ele>
        <time>2003-06-29T07:40:43Z</time>
      </trkpt>
      <trkpt lat="43.52988" lon="5.86321">
        <ele>390.34</ele>
        <time>2003-06-29T07:40:52Z</time>
      </trkpt>
      <trkpt lat="43.5299" lon="5.86294">
        <ele>391.42</ele>
        <time>2003-06-29T07:41:01Z</time>
      </trkpt>
      <trkpt lat="43.52993" lon="5.86268">
        <ele>392.42</ele>
        <time>2003-06-29T07:41:11Z</time>
      </trkpt>
      <trkpt lat="43.52998" lon="5.86241">
        <ele>394.39</ele>
        <time>2003-06-29T07:41:21Z</time>
      </trkpt>
      <trkpt lat="43.53004" lon="5.86215">
        <ele>396.46</ele>
        <time>2003-06-29T07:41:30Z</time>
      </trkpt>
      <trkpt lat="43.53014" lon="5.86193">
        <ele>396.34</ele>
        <time>2003-06-29T07:41:40Z</time>
      </trkpt>
      <trkpt lat="43.53031" lon="5.86185">
        <ele>396.98</ele>
        <time>2003-06-29T07:41:48Z</time>
      </trkpt>
      <trkpt lat="43.53046" lon="5.8617">
        <ele>397.09</ele>
        <time>2003-06-29T07:41:58Z</time>
      </trkpt>
      <trkpt lat="43.53061" lon="5.86156">
        <ele>397.2</ele>
        <time>2003-06-29T07:42:07Z</time>
      </trkpt>
      <trkpt lat="43.53075" lon="5.86139">
        <ele>397.09</ele>
        <time>2003-06-29T07:42:16Z</time>
      </trkpt>
      <trkpt lat="43.5309" lon="5.86121">
        <ele>397.35</ele>
        <time>2003-06-29T07:42:25Z</time>
      </trkpt>
      <trkpt lat="43.53103" lon="5.86103">
        <ele>397.65</ele>
        <time>2003-06-29T07:42:34Z</time>
      </trkpt>
      <trkpt lat="43.53117" lon="5.86084">
        <ele>398.72</ele>
        <time>2003-06-29T07:42:44Z</time>
      </trkpt>
      <trkpt lat="43.53136" lon="5.86077">
        <ele>399.17</ele>
        <time>2003-06-29T07:42:54Z</time>
      </trkpt>
      <trkpt lat="43.53152" lon="5.86063">
        <ele>398.34</ele>
        <time>2003-06-29T07:43:01Z</time>
      </trkpt>
      <trkpt lat="43.53169" lon="5.86054">
        <ele>399.07</ele>
        <time>2003-06-29T07:43:08Z</time>
      </trkpt>
      <trkpt lat="43.53188" lon="5.86051">
        <ele>400.34</ele>
        <time>2003-06-29T07:43:20Z</time>
      </trkpt>
      <trkpt lat="43.53198" lon="5.86071">
        <ele>400.83</ele>
        <time>2003-06-29T07:45:08Z</time>
      </trkpt>
      <trkpt lat="43.53215" lon="5.86084">
        <ele>401.7</ele>
        <time>2003-06-29T07:45:18Z</time>
      </trkpt>
      <trkpt lat="43.53232" lon="5.86098">
        <ele>403.74</ele>
        <time>2003-06-29T07:45:28Z</time>
      </trkpt>
      <trkpt lat="43.53249" lon="5.86108">
        <ele>405.08</ele>
        <time>2003-06-29T07:45:38Z</time>
      </trkpt>
      <trkpt lat="43.53264" lon="5.86125">
        <ele>407.52</ele>
        <time>2003-06-29T07:45:47Z</time>
      </trkpt>
      <trkpt lat="43.5328" lon="5.86141">
        <ele>408.67</ele>
        <time>2003-06-29T07:45:56Z</time>
      </trkpt>
      <trkpt lat="43.53299" lon="5.86154">
        <ele>408.15</ele>
        <time>2003-06-29T07:46:04Z</time>
      </trkpt>
      <trkpt lat="43.53315" lon="5.8617">
        <ele>406.26</ele>
        <time>2003-06-29T07:46:12Z</time>
      </trkpt>
      <trkpt lat="43.53332" lon="5.86179">
        <ele>407.08</ele>
        <time>2003-06-29T07:46:19Z</time>
      </trkpt>
      <trkpt lat="43.53348" lon="5.86197">
        <ele>406.39</ele>
        <time>2003-06-29T07:46:27Z</time>
      </trkpt>
      <trkpt lat="43.53364" lon="5.86209">
        <ele>405.14</ele>
        <time>2003-06-29T07:46:35Z</time>
      </trkpt>
      <trkpt lat="43.53383" lon="5.86206">
        <ele>403.12</ele>
        <time>2003-06-29T07:46:43Z</time>
      </trkpt>
      <trkpt lat="43.534" lon="5.86195">
        <ele>405.22</ele>
        <time>2003-06-29T07:46:51Z</time>
      </trkpt>
      <trkpt lat="43.53419" lon="5.86185">
        <ele>406.23</ele>
        <time>2003-06-29T07:46:59Z</time>
      </trkpt>
      <trkpt lat="43.53437" lon="5.86187">
        <ele>406.17</ele>
        <time>2003-06-29T07:47:28Z</time>
      </trkpt>
      <trkpt lat="43.53446" lon="5.86209">
        <ele>406.36</ele>
        <time>2003-06-29T07:47:38Z</time>
      </trkpt>
      <trkpt lat="43.53452" lon="5.86234">
        <ele>408.59</ele>
        <time>2003-06-29T07:47:47Z</time>
      </trkpt>
      <trkpt lat="43.53461" lon="5.86255">
        <ele>410.45</ele>
        <time>2003-06-29T07:47:55Z</time>
      </trkpt>
      <trkpt lat="43.5347" lon="5.8628">
        <ele>413.3</ele>
        <time>2003-06-29T07:48:04Z</time>
      </trkpt>
      <trkpt lat="43.53479" lon="5.86302">
        <ele>413.4</ele>
        <time>2003-06-29T07:48:11Z</time>
      </trkpt>
      <trkpt lat="43.53497" lon="5.86302">
        <ele>411.07</ele>
        <time>2003-06-29T07:48:22Z</time>
      </trkpt>
      <trkpt lat="43.53515" lon="5.86292">
        <ele>412.14</ele>
        <time>2003-06-29T07:48:31Z</time>
      </trkpt>
      <trkpt lat="43.53534" lon="5.86286">
        <ele>413.14</ele>
        <time>2003-06-29T07:48:40Z</time>
      </trkpt>
      <trkpt lat="43.53546" lon="5.86306">
        <ele>415.79</ele>
        <time>2003-06-29T07:48:49Z</time>
      </trkpt>
      <trkpt lat="43.53553" lon="5.86331">
        <ele>418.4</ele>
        <time>2003-06-29T07:48:57Z</time>
      </trkpt>
      <trkpt lat="43.53564" lon="5.86353">
        <ele>419.71</ele>
        <time>2003-06-29T07:49:06Z</time>
      </trkpt>
      <trkpt lat="43.5358" lon="5.86367">
        <ele>420.05</ele>
        <time>2003-06-29T07:49:14Z</time>
      </trkpt>
      <trkpt lat="43.53598" lon="5.86365">
        <ele>419.72</ele>
        <time>2003-06-29T07:49:23Z</time>
      </trkpt>
      <trkpt lat="43.53616" lon="5.86364">
        <ele>420</ele>
        <time>2003-06-29T07:49:32Z</time>
      </trkpt>
      <trkpt lat="43.53637" lon="5.86366">
        <ele>420.05</ele>
        <time>2003-06-29T07:49:41Z</time>
      </trkpt>
      <trkpt lat="43.53656" lon="5.86362">
        <ele>418.62</ele>
        <time>2003-06-29T07:49:49Z</time>
      </trkpt>
      <trkpt lat="43.53673" lon="5.86353">
        <ele>417.7</ele>
        <time>2003-06-29T07:49:57Z</time>
      </trkpt>
      <trkpt lat="43.53692" lon="5.86349">
        <ele>417.98</ele>
        <time>2003-06-29T07:50:05Z</time>
      </trkpt>
      <trkpt lat="43.53709" lon="5.86363">
        <ele>418.34</ele>
        <time>2003-06-29T07:50:14Z</time>
      </trkpt>
      <trkpt lat="43.5372" lon="5.86384">
        <ele>420.78</ele>
        <time>2003-06-29T07:50:23Z</time>
      </trkpt>
      <trkpt lat="43.53736" lon="5.86398">
        <ele>423.4</ele>
        <time>2003-06-29T07:50:33Z</time>
      </trkpt>
      <trkpt lat="43.53755" lon="5.86398">
        <ele>424.29</ele>
        <time>2003-06-29T07:50:42Z</time>
      </trkpt>
      <trkpt lat="43.53774" lon="5.86398">
        <ele>424.17</ele>
        <time>2003-06-29T07:50:50Z</time>
      </trkpt>
      <trkpt lat="43.53793" lon="5.86397">
        <ele>424.45</ele>
        <time>2003-06-29T07:50:58Z</time>
      </trkpt>
      <trkpt lat="43.53811" lon="5.86396">
        <ele>425.76</ele>
        <time>2003-06-29T07:51:07Z</time>
      </trkpt>
      <trkpt lat="43.53827" lon="5.86381">
        <ele>426.05</ele>
        <time>2003-06-29T07:51:15Z</time>
      </trkpt>
      <trkpt lat="43.53845" lon="5.86377">
        <ele>427.65</ele>
        <time>2003-06-29T07:51:23Z</time>
      </trkpt>
      <trkpt lat="43.53864" lon="5.86376">
        <ele>427.83</ele>
        <time>2003-06-29T07:51:31Z</time>
      </trkpt>
      <trkpt lat="43.53882" lon="5.86369">
        <ele>428.94</ele>
        <time>2003-06-29T07:51:39Z</time>
      </trkpt>
      <trkpt lat="43.53901" lon="5.86364">
        <ele>429.65</ele>
        <time>2003-06-29T07:51:47Z</time>
      </trkpt>
      <trkpt lat="43.53921" lon="5.86368">
        <ele>431.4</ele>
        <time>2003-06-29T07:51:55Z</time>
      </trkpt>
      <trkpt lat="43.53937" lon="5.86382">
        <ele>432.28</ele>
        <time>2003-06-29T07:52:02Z</time>
      </trkpt>
      <trkpt lat="43.53949" lon="5.86403">
        <ele>432.99</ele>
        <time>2003-06-29T07:52:10Z</time>
      </trkpt>
      <trkpt lat="43.53958" lon="5.86428">
        <ele>432.89</ele>
        <time>2003-06-29T07:52:18Z</time>
      </trkpt>
      <trkpt lat="43.5397" lon="5.8645">
        <ele>434.45</ele>
        <time>2003-06-29T07:52:25Z</time>
      </trkpt>
      <trkpt lat="43.53982" lon="5.86471">
        <ele>434.8</ele>
        <time>2003-06-29T07:52:33Z</time>
      </trkpt>
      <trkpt lat="43.53996" lon="5.86487">
        <ele>435.84</ele>
        <time>2003-06-29T07:52:41Z</time>
      </trkpt>
      <trkpt lat="43.54011" lon="5.86503">
        <ele>435.59</ele>
        <time>2003-06-29T07:52:50Z</time>
      </trkpt>
      <trkpt lat="43.54016" lon="5.86527">
        <ele>435.78</ele>
        <time>2003-06-29T07:52:58Z</time>
      </trkpt>
      <trkpt lat="43.54024" lon="5.86551">
        <ele>437.38</ele>
        <time>2003-06-29T07:53:06Z</time>
      </trkpt>
      <trkpt lat="43.54032" lon="5.86577">
        <ele>438.05</ele>
        <time>2003-06-29T07:53:14Z</time>
      </trkpt>
      <trkpt lat="43.54033" lon="5.86602">
        <ele>439.29</ele>
        <time>2003-06-29T07:53:21Z</time>
      </trkpt>
      <trkpt lat="43.5403" lon="5.8663">
        <ele>440.73</ele>
        <time>2003-06-29T07:53:29Z</time>
      </trkpt>
      <trkpt lat="43.54027" lon="5.86656">
        <ele>442.12</ele>
        <time>2003-06-29T07:53:36Z</time>
      </trkpt>
      <trkpt lat="43.54024" lon="5.86684">
        <ele>442.98</ele>
        <time>2003-06-29T07:53:43Z</time>
      </trkpt>
      <trkpt lat="43.54018" lon="5.86711">
        <ele>443.74</ele>
        <time>2003-06-29T07:53:50Z</time>
      </trkpt>
      <trkpt lat="43.54009" lon="5.86733">
        <ele>444.06</ele>
        <time>2003-06-29T07:53:58Z</time>
      </trkpt>
      <trkpt lat="43.54014" lon="5.86758">
        <ele>442.29</ele>
        <time>2003-06-29T07:54:18Z</time>
      </trkpt>
      <trkpt lat="43.54014" lon="5.86783">
        <ele>442.07</ele>
        <time>2003-06-29T07:54:28Z</time>
      </trkpt>
      <trkpt lat="43.54014" lon="5.86809">
        <ele>443.67</ele>
        <time>2003-06-29T07:55:17Z</time>
      </trkpt>
      <trkpt lat="43.54025" lon="5.86829">
        <ele>443.75</ele>
        <time>2003-06-29T07:55:24Z</time>
      </trkpt>
      <trkpt lat="43.5404" lon="5.86848">
        <ele>444.02</ele>
        <time>2003-06-29T07:55:31Z</time>
      </trkpt>
      <trkpt lat="43.54052" lon="5.86869">
        <ele>443.88</ele>
        <time>2003-06-29T07:55:37Z</time>
      </trkpt>
      <trkpt lat="43.54065" lon="5.86886">
        <ele>444.12</ele>
        <time>2003-06-29T07:55:42Z</time>
      </trkpt>
      <trkpt lat="43.54083" lon="5.869">
        <ele>445.02</ele>
        <time>2003-06-29T07:55:48Z</time>
      </trkpt>
      <trkpt lat="43.54101" lon="5.8691">
        <ele>446.67</ele>
        <time>2003-06-29T07:55:55Z</time>
      </trkpt>
      <trkpt lat="43.5412" lon="5.86907">
        <ele>447.16</ele>
        <time>2003-06-29T07:56:01Z</time>
      </trkpt>
      <trkpt lat="43.54138" lon="5.86905">
        <ele>444.95</ele>
        <time>2003-06-29T07:56:07Z</time>
      </trkpt>
      <trkpt lat="43.54158" lon="5.86899">
        <ele>443.73</ele>
        <time>2003-06-29T07:56:14Z</time>
      </trkpt>
      <trkpt lat="43.54179" lon="5.869">
        <ele>442.22</ele>
        <time>2003-06-29T07:56:20Z</time>
      </trkpt>
      <trkpt lat="43.54195" lon="5.86915">
        <ele>446.07</ele>
        <time>2003-06-29T07:56:26Z</time>
      </trkpt>
      <trkpt lat="43.54188" lon="5.86941">
        <ele>447.82</ele>
        <time>2003-06-29T07:56:32Z</time>
      </trkpt>
      <trkpt lat="43.54176" lon="5.86961">
        <ele>447.78</ele>
        <time>2003-06-29T07:56:37Z</time>
      </trkpt>
      <trkpt lat="43.54161" lon="5.86981">
        <ele>448.54</ele>
        <time>2003-06-29T07:56:42Z</time>
      </trkpt>
      <trkpt lat="43.54147" lon="5.87003">
        <ele>449.12</ele>
        <time>2003-06-29T07:56:47Z</time>
      </trkpt>
      <trkpt lat="43.54132" lon="5.87024">
        <ele>449.54</ele>
        <time>2003-06-29T07:56:52Z</time>
      </trkpt>
      <trkpt lat="43.54115" lon="5.87044">
        <ele>449.16</ele>
        <time>2003-06-29T07:56:57Z</time>
      </trkpt>
      <trkpt lat="43.541" lon="5.87064">
        <ele>448.51</ele>
        <time>2003-06-29T07:57:02Z</time>
      </trkpt>
      <trkpt lat="43.54084" lon="5.87086">
        <ele>448.08</ele>
        <time>2003-06-29T07:57:07Z</time>
      </trkpt>
      <trkpt lat="43.54071" lon="5.87104">
        <ele>448.54</ele>
        <time>2003-06-29T07:57:11Z</time>
      </trkpt>
      <trkpt lat="43.54061" lon="5.87124">
        <ele>449.76</ele>
        <time>2003-06-29T07:57:15Z</time>
      </trkpt>
      <trkpt lat="43.5405" lon="5.87149">
        <ele>450.05</ele>
        <time>2003-06-29T07:57:20Z</time>
      </trkpt>
      <trkpt lat="43.54039" lon="5.87172">
        <ele>450.03</ele>
        <time>2003-06-29T07:57:25Z</time>
      </trkpt>
      <trkpt lat="43.54029" lon="5.87196">
        <ele>449.87</ele>
        <time>2003-06-29T07:57:30Z</time>
      </trkpt>
      <trkpt lat="43.54019" lon="5.87223">
        <ele>450.69</ele>
        <time>2003-06-29T07:57:35Z</time>
      </trkpt>
      <trkpt lat="43.54011" lon="5.8725">
        <ele>451.08</ele>
        <time>2003-06-29T07:57:40Z</time>
      </trkpt>
      <trkpt lat="43.54002" lon="5.87276">
        <ele>450.4</ele>
        <time>2003-06-29T07:57:45Z</time>
      </trkpt>
      <trkpt lat="43.53996" lon="5.873">
        <ele>450.55</ele>
        <time>2003-06-29T07:57:51Z</time>
      </trkpt>
      <trkpt lat="43.54012" lon="5.87317">
        <ele>452.47</ele>
        <time>2003-06-29T07:59:04Z</time>
      </trkpt>
      <trkpt lat="43.54029" lon="5.8733">
        <ele>452.28</ele>
        <time>2003-06-29T07:59:10Z</time>
      </trkpt>
      <trkpt lat="43.54048" lon="5.87342">
        <ele>450.58</ele>
        <time>2003-06-29T07:59:16Z</time>
      </trkpt>
      <trkpt lat="43.54064" lon="5.87359">
        <ele>448.82</ele>
        <time>2003-06-29T07:59:22Z</time>
      </trkpt>
      <trkpt lat="43.5408" lon="5.87372">
        <ele>448.78</ele>
        <time>2003-06-29T07:59:28Z</time>
      </trkpt>
      <trkpt lat="43.54098" lon="5.87384">
        <ele>448.81</ele>
        <time>2003-06-29T07:59:34Z</time>
      </trkpt>
      <trkpt lat="43.54106" lon="5.87409">
        <ele>450.53</ele>
        <time>2003-06-29T07:59:41Z</time>
      </trkpt>
      <trkpt lat="43.54097" lon="5.87434">
        <ele>451.92</ele>
        <time>2003-06-29T07:59:47Z</time>
      </trkpt>
      <trkpt lat="43.54093" lon="5.87458">
        <ele>453.49</ele>
        <time>2003-06-29T07:59:52Z</time>
      </trkpt>
      <trkpt lat="43.5409" lon="5.87487">
        <ele>453.84</ele>
        <time>2003-06-29T07:59:58Z</time>
      </trkpt>
      <trkpt lat="43.54085" lon="5.87515">
        <ele>454.52</ele>
        <time>2003-06-29T08:00:04Z</time>
      </trkpt>
      <trkpt lat="43.54082" lon="5.87543">
        <ele>456.18</ele>
        <time>2003-06-29T08:00:10Z</time>
      </trkpt>
      <trkpt lat="43.54073" lon="5.87568">
        <ele>457.69</ele>
        <time>2003-06-29T08:00:16Z</time>
      </trkpt>
      <trkpt lat="43.54067" lon="5.87595">
        <ele>457.69</ele>
        <time>2003-06-29T08:00:22Z</time>
      </trkpt>
      <trkpt lat="43.54067" lon="5.87621">
        <ele>457.77</ele>
        <time>2003-06-29T08:00:49Z</time>
      </trkpt>
      <trkpt lat="43.54079" lon="5.8764">
        <ele>457.22</ele>
        <time>2003-06-29T08:00:58Z</time>
      </trkpt>
      <trkpt lat="43.54086" lon="5.87665">
        <ele>456.66</ele>
        <time>2003-06-29T08:01:05Z</time>
      </trkpt>
      <trkpt lat="43.54085" lon="5.87692">
        <ele>457.15</ele>
        <time>2003-06-29T08:01:11Z</time>
      </trkpt>
      <trkpt lat="43.54087" lon="5.87721">
        <ele>457.36</ele>
        <time>2003-06-29T08:01:17Z</time>
      </trkpt>
      <trkpt lat="43.54088" lon="5.87746">
        <ele>457.96</ele>
        <time>2003-06-29T08:01:22Z</time>
      </trkpt>
      <trkpt lat="43.54089" lon="5.87773">
        <ele>457.19</ele>
        <time>2003-06-29T08:01:37Z</time>
      </trkpt>
      <trkpt lat="43.54087" lon="5.87798">
        <ele>454</ele>
        <time>2003-06-29T08:02:15Z</time>
      </trkpt>
      <trkpt lat="43.54089" lon="5.87825">
        <ele>453.76</ele>
        <time>2003-06-29T08:02:26Z</time>
      </trkpt>
      <trkpt lat="43.54085" lon="5.8785">
        <ele>453.19</ele>
        <time>2003-06-29T08:02:33Z</time>
      </trkpt>
      <trkpt lat="43.54084" lon="5.87875">
        <ele>453.47</ele>
        <time>2003-06-29T08:02:47Z</time>
      </trkpt>
      <trkpt lat="43.5408" lon="5.879">
        <ele>452.8</ele>
        <time>2003-06-29T08:02:54Z</time>
      </trkpt>
      <trkpt lat="43.54072" lon="5.87926">
        <ele>451.06</ele>
        <time>2003-06-29T08:03:01Z</time>
      </trkpt>
      <trkpt lat="43.54063" lon="5.87951">
        <ele>450.19</ele>
        <time>2003-06-29T08:03:08Z</time>
      </trkpt>
      <trkpt lat="43.54057" lon="5.87976">
        <ele>448.94</ele>
        <time>2003-06-29T08:03:14Z</time>
      </trkpt>
      <trkpt lat="43.54056" lon="5.88001">
        <ele>446.79</ele>
        <time>2003-06-29T08:03:21Z</time>
      </trkpt>
      <trkpt lat="43.54042" lon="5.88022">
        <ele>445.84</ele>
        <time>2003-06-29T08:03:27Z</time>
      </trkpt>
      <trkpt lat="43.54031" lon="5.88044">
        <ele>444.46</ele>
        <time>2003-06-29T08:03:32Z</time>
      </trkpt>
      <trkpt lat="43.54024" lon="5.88069">
        <ele>440.59</ele>
        <time>2003-06-29T08:03:41Z</time>
      </trkpt>
      <trkpt lat="43.54021" lon="5.88093">
        <ele>436.62</ele>
        <time>2003-06-29T08:03:49Z</time>
      </trkpt>
      <trkpt lat="43.54009" lon="5.88116">
        <ele>432.47</ele>
        <time>2003-06-29T08:03:56Z</time>
      </trkpt>
      <trkpt lat="43.54006" lon="5.88144">
        <ele>428.17</ele>
        <time>2003-06-29T08:04:03Z</time>
      </trkpt>
      <trkpt lat="43.54003" lon="5.88169">
        <ele>426.79</ele>
        <time>2003-06-29T08:04:08Z</time>
      </trkpt>
      <trkpt lat="43.54001" lon="5.88194">
        <ele>424.41</ele>
        <time>2003-06-29T08:04:13Z</time>
      </trkpt>
      <trkpt lat="43.54002" lon="5.88224">
        <ele>420.61</ele>
        <time>2003-06-29T08:04:19Z</time>
      </trkpt>
      <trkpt lat="43.54002" lon="5.88253">
        <ele>417.42</ele>
        <time>2003-06-29T08:04:24Z</time>
      </trkpt>
      <trkpt lat="43.53999" lon="5.88281">
        <ele>413.13</ele>
        <time>2003-06-29T08:04:30Z</time>
      </trkpt>
      <trkpt lat="43.53996" lon="5.88306">
        <ele>408.06</ele>
        <time>2003-06-29T08:04:36Z</time>
      </trkpt>
      <trkpt lat="43.53993" lon="5.88331">
        <ele>404.09</ele>
        <time>2003-06-29T08:04:57Z</time>
      </trkpt>
      <trkpt lat="43.53994" lon="5.88357">
        <ele>399.36</ele>
        <time>2003-06-29T08:05:26Z</time>
      </trkpt>
      <trkpt lat="43.53992" lon="5.88385">
        <ele>396.23</ele>
        <time>2003-06-29T08:05:31Z</time>
      </trkpt>
      <trkpt lat="43.53992" lon="5.88413">
        <ele>391.75</ele>
        <time>2003-06-29T08:05:37Z</time>
      </trkpt>
      <trkpt lat="43.53992" lon="5.8844">
        <ele>387.72</ele>
        <time>2003-06-29T08:05:43Z</time>
      </trkpt>
      <trkpt lat="43.5399" lon="5.88467">
        <ele>379.56</ele>
        <time>2003-06-29T08:06:28Z</time>
      </trkpt>
      <trkpt lat="43.53991" lon="5.88494">
        <ele>380.16</ele>
        <time>2003-06-29T08:06:39Z</time>
      </trkpt>
      <trkpt lat="43.53987" lon="5.88518">
        <ele>380.43</ele>
        <time>2003-06-29T08:06:47Z</time>
      </trkpt>
      <trkpt lat="43.53985" lon="5.88544">
        <ele>381.07</ele>
        <time>2003-06-29T08:06:59Z</time>
      </trkpt>
      <trkpt lat="43.53981" lon="5.88571">
        <ele>380.85</ele>
        <time>2003-06-29T08:07:05Z</time>
      </trkpt>
      <trkpt lat="43.53978" lon="5.88598">
        <ele>380.24</ele>
        <time>2003-06-29T08:07:11Z</time>
      </trkpt>
      <trkpt lat="43.53975" lon="5.88622">
        <ele>379.65</ele>
        <time>2003-06-29T08:07:17Z</time>
      </trkpt>
      <trkpt lat="43.53975" lon="5.8865">
        <ele>378.68</ele>
        <time>2003-06-29T08:07:23Z</time>
      </trkpt>
      <trkpt lat="43.53973" lon="5.88675">
        <ele>377.43</ele>
        <time>2003-06-29T08:07:29Z</time>
      </trkpt>
      <trkpt lat="43.53969" lon="5.88699">
        <ele>375.53</ele>
        <time>2003-06-29T08:07:36Z</time>
      </trkpt>
      <trkpt lat="43.53965" lon="5.88725">
        <ele>374.94</ele>
        <time>2003-06-29T08:08:08Z</time>
      </trkpt>
      <trkpt lat="43.53963" lon="5.88751">
        <ele>374.12</ele>
        <time>2003-06-29T08:08:14Z</time>
      </trkpt>
      <trkpt lat="43.53962" lon="5.88781">
        <ele>372.52</ele>
        <time>2003-06-29T08:08:20Z</time>
      </trkpt>
      <trkpt lat="43.5396" lon="5.88809">
        <ele>370.49</ele>
        <time>2003-06-29T08:08:25Z</time>
      </trkpt>
      <trkpt lat="43.5396" lon="5.88835">
        <ele>367.16</ele>
        <time>2003-06-29T08:08:31Z</time>
      </trkpt>
      <trkpt lat="43.53961" lon="5.88863">
        <ele>362.22</ele>
        <time>2003-06-29T08:08:38Z</time>
      </trkpt>
      <trkpt lat="43.53957" lon="5.88891">
        <ele>357.64</ele>
        <time>2003-06-29T08:08:44Z</time>
      </trkpt>
      <trkpt lat="43.53953" lon="5.88918">
        <ele>356.48</ele>
        <time>2003-06-29T08:08:49Z</time>
      </trkpt>
      <trkpt lat="43.53951" lon="5.88947">
        <ele>355.45</ele>
        <time>2003-06-29T08:08:54Z</time>
      </trkpt>
      <trkpt lat="43.53948" lon="5.88972">
        <ele>353.58</ele>
        <time>2003-06-29T08:08:58Z</time>
      </trkpt>
      <trkpt lat="43.53946" lon="5.88998">
        <ele>351.92</ele>
        <time>2003-06-29T08:09:02Z</time>
      </trkpt>
      <trkpt lat="43.53946" lon="5.89023">
        <ele>350.27</ele>
        <time>2003-06-29T08:09:06Z</time>
      </trkpt>
      <trkpt lat="43.53943" lon="5.89048">
        <ele>348.75</ele>
        <time>2003-06-29T08:09:10Z</time>
      </trkpt>
      <trkpt lat="43.53941" lon="5.89077">
        <ele>348.32</ele>
        <time>2003-06-29T08:09:15Z</time>
      </trkpt>
      <trkpt lat="43.53941" lon="5.89105">
        <ele>347.76</ele>
        <time>2003-06-29T08:09:20Z</time>
      </trkpt>
      <trkpt lat="43.53943" lon="5.89133">
        <ele>346.54</ele>
        <time>2003-06-29T08:09:26Z</time>
      </trkpt>
      <trkpt lat="43.53945" lon="5.89158">
        <ele>343.05</ele>
        <time>2003-06-29T08:09:37Z</time>
      </trkpt>
      <trkpt lat="43.53948" lon="5.89183">
        <ele>339.54</ele>
        <time>2003-06-29T08:09:55Z</time>
      </trkpt>
      <trkpt lat="43.53953" lon="5.8921">
        <ele>336.2</ele>
        <time>2003-06-29T08:10:03Z</time>
      </trkpt>
      <trkpt lat="43.53953" lon="5.89237">
        <ele>333.31</ele>
        <time>2003-06-29T08:10:07Z</time>
      </trkpt>
      <trkpt lat="43.53951" lon="5.89262">
        <ele>330.95</ele>
        <time>2003-06-29T08:10:12Z</time>
      </trkpt>
      <trkpt lat="43.53954" lon="5.89287">
        <ele>321.17</ele>
        <time>2003-06-29T08:13:03Z</time>
      </trkpt>
      <trkpt lat="43.5396" lon="5.89312">
        <ele>320.96</ele>
        <time>2003-06-29T08:13:12Z</time>
      </trkpt>
      <trkpt lat="43.53972" lon="5.89331">
        <ele>321.22</ele>
        <time>2003-06-29T08:13:22Z</time>
      </trkpt>
      <trkpt lat="43.53991" lon="5.89335">
        <ele>322.28</ele>
        <time>2003-06-29T08:13:31Z</time>
      </trkpt>
      <trkpt lat="43.5401" lon="5.89341">
        <ele>324.76</ele>
        <time>2003-06-29T08:13:40Z</time>
      </trkpt>
      <trkpt lat="43.54028" lon="5.89346">
        <ele>326.81</ele>
        <time>2003-06-29T08:13:49Z</time>
      </trkpt>
      <trkpt lat="43.54046" lon="5.89355">
        <ele>329.92</ele>
        <time>2003-06-29T08:13:57Z</time>
      </trkpt>
      <trkpt lat="43.54069" lon="5.89356">
        <ele>329.01</ele>
        <time>2003-06-29T08:14:05Z</time>
      </trkpt>
      <trkpt lat="43.54092" lon="5.89348">
        <ele>325.72</ele>
        <time>2003-06-29T08:14:09Z</time>
      </trkpt>
      <trkpt lat="43.54114" lon="5.89337">
        <ele>324.42</ele>
        <time>2003-06-29T08:14:13Z</time>
      </trkpt>
      <trkpt lat="43.54132" lon="5.89327">
        <ele>323.96</ele>
        <time>2003-06-29T08:14:17Z</time>
      </trkpt>
      <trkpt lat="43.54153" lon="5.89319">
        <ele>323.96</ele>
        <time>2003-06-29T08:14:22Z</time>
      </trkpt>
      <trkpt lat="43.54173" lon="5.89316">
        <ele>323.16</ele>
        <time>2003-06-29T08:14:28Z</time>
      </trkpt>
      <trkpt lat="43.54193" lon="5.89318">
        <ele>323.47</ele>
        <time>2003-06-29T08:14:33Z</time>
      </trkpt>
      <trkpt lat="43.54212" lon="5.89325">
        <ele>326.84</ele>
        <time>2003-06-29T08:14:38Z</time>
      </trkpt>
      <trkpt lat="43.54231" lon="5.89335">
        <ele>328.03</ele>
        <time>2003-06-29T08:14:44Z</time>
      </trkpt>
      <trkpt lat="43.54249" lon="5.89342">
        <ele>329.32</ele>
        <time>2003-06-29T08:14:50Z</time>
      </trkpt>
      <trkpt lat="43.54267" lon="5.89342">
        <ele>331.54</ele>
        <time>2003-06-29T08:14:57Z</time>
      </trkpt>
      <trkpt lat="43.54286" lon="5.89344">
        <ele>332.12</ele>
        <time>2003-06-29T08:15:04Z</time>
      </trkpt>
      <trkpt lat="43.54305" lon="5.89348">
        <ele>333.12</ele>
        <time>2003-06-29T08:15:11Z</time>
      </trkpt>
      <trkpt lat="43.54325" lon="5.89354">
        <ele>334.14</ele>
        <time>2003-06-29T08:15:18Z</time>
      </trkpt>
      <trkpt lat="43.54343" lon="5.89356">
        <ele>334.95</ele>
        <time>2003-06-29T08:15:24Z</time>
      </trkpt>
      <trkpt lat="43.54363" lon="5.89357">
        <ele>333.81</ele>
        <time>2003-06-29T08:15:30Z</time>
      </trkpt>
      <trkpt lat="43.54384" lon="5.89358">
        <ele>333.17</ele>
        <time>2003-06-29T08:15:36Z</time>
      </trkpt>
      <trkpt lat="43.54403" lon="5.89353">
        <ele>330.79</ele>
        <time>2003-06-29T08:15:40Z</time>
      </trkpt>
      <trkpt lat="43.54422" lon="5.89347">
        <ele>330.07</ele>
        <time>2003-06-29T08:15:45Z</time>
      </trkpt>
      <trkpt lat="43.54416" lon="5.89376">
        <ele>329.67</ele>
        <time>2003-06-29T08:15:53Z</time>
      </trkpt>
      <trkpt lat="43.54407" lon="5.89401">
        <ele>329.22</ele>
        <time>2003-06-29T08:15:59Z</time>
      </trkpt>
      <trkpt lat="43.54414" lon="5.89426">
        <ele>328.47</ele>
        <time>2003-06-29T08:16:06Z</time>
      </trkpt>
      <trkpt lat="43.54423" lon="5.89448">
        <ele>329.45</ele>
        <time>2003-06-29T08:16:13Z</time>
      </trkpt>
      <trkpt lat="43.5443" lon="5.89473">
        <ele>331.12</ele>
        <time>2003-06-29T08:16:20Z</time>
      </trkpt>
      <trkpt lat="43.54433" lon="5.89497">
        <ele>331.86</ele>
        <time>2003-06-29T08:16:26Z</time>
      </trkpt>
      <trkpt lat="43.54434" lon="5.89524">
        <ele>331.57</ele>
        <time>2003-06-29T08:16:32Z</time>
      </trkpt>
      <trkpt lat="43.54428" lon="5.89548">
        <ele>331.29</ele>
        <time>2003-06-29T08:16:37Z</time>
      </trkpt>
      <trkpt lat="43.54425" lon="5.89575">
        <ele>330.91</ele>
        <time>2003-06-29T08:16:43Z</time>
      </trkpt>
      <trkpt lat="43.54414" lon="5.89597">
        <ele>329.53</ele>
        <time>2003-06-29T08:16:49Z</time>
      </trkpt>
      <trkpt lat="43.54404" lon="5.89623">
        <ele>330.24</ele>
        <time>2003-06-29T08:16:55Z</time>
      </trkpt>
      <trkpt lat="43.5439" lon="5.89643">
        <ele>330.68</ele>
        <time>2003-06-29T08:17:01Z</time>
      </trkpt>
      <trkpt lat="43.54377" lon="5.89666">
        <ele>330.95</ele>
        <time>2003-06-29T08:17:07Z</time>
      </trkpt>
      <trkpt lat="43.54373" lon="5.89691">
        <ele>329.64</ele>
        <time>2003-06-29T08:17:13Z</time>
      </trkpt>
      <trkpt lat="43.54386" lon="5.89711">
        <ele>330.74</ele>
        <time>2003-06-29T08:17:20Z</time>
      </trkpt>
      <trkpt lat="43.54402" lon="5.89723">
        <ele>332.95</ele>
        <time>2003-06-29T08:17:27Z</time>
      </trkpt>
      <trkpt lat="43.54422" lon="5.89726">
        <ele>333.62</ele>
        <time>2003-06-29T08:17:33Z</time>
      </trkpt>
      <trkpt lat="43.54441" lon="5.89731">
        <ele>335.31</ele>
        <time>2003-06-29T08:17:39Z</time>
      </trkpt>
      <trkpt lat="43.54459" lon="5.89739">
        <ele>336.23</ele>
        <time>2003-06-29T08:17:45Z</time>
      </trkpt>
      <trkpt lat="43.54478" lon="5.89725">
        <ele>336.86</ele>
        <time>2003-06-29T08:17:52Z</time>
      </trkpt>
      <trkpt lat="43.54494" lon="5.89707">
        <ele>337.16</ele>
        <time>2003-06-29T08:17:58Z</time>
      </trkpt>
      <trkpt lat="43.54511" lon="5.89691">
        <ele>338.23</ele>
        <time>2003-06-29T08:18:04Z</time>
      </trkpt>
      <trkpt lat="43.54529" lon="5.89676">
        <ele>339.4</ele>
        <time>2003-06-29T08:18:10Z</time>
      </trkpt>
      <trkpt lat="43.54547" lon="5.89663">
        <ele>338.22</ele>
        <time>2003-06-29T08:18:16Z</time>
      </trkpt>
      <trkpt lat="43.54566" lon="5.89649">
        <ele>336.86</ele>
        <time>2003-06-29T08:18:22Z</time>
      </trkpt>
      <trkpt lat="43.54584" lon="5.89638">
        <ele>336.53</ele>
        <time>2003-06-29T08:18:28Z</time>
      </trkpt>
      <trkpt lat="43.54602" lon="5.8963">
        <ele>337.39</ele>
        <time>2003-06-29T08:18:34Z</time>
      </trkpt>
      <trkpt lat="43.54621" lon="5.8963">
        <ele>338.53</ele>
        <time>2003-06-29T08:18:41Z</time>
      </trkpt>
      <trkpt lat="43.54639" lon="5.89643">
        <ele>337.28</ele>
        <time>2003-06-29T08:18:48Z</time>
      </trkpt>
      <trkpt lat="43.54652" lon="5.89665">
        <ele>337.82</ele>
        <time>2003-06-29T08:18:55Z</time>
      </trkpt>
      <trkpt lat="43.54656" lon="5.8969">
        <ele>338.39</ele>
        <time>2003-06-29T08:19:01Z</time>
      </trkpt>
      <trkpt lat="43.54652" lon="5.89716">
        <ele>338.6</ele>
        <time>2003-06-29T08:19:07Z</time>
      </trkpt>
      <trkpt lat="43.54649" lon="5.89742">
        <ele>338.68</ele>
        <time>2003-06-29T08:19:13Z</time>
      </trkpt>
      <trkpt lat="43.54645" lon="5.8977">
        <ele>338.55</ele>
        <time>2003-06-29T08:19:20Z</time>
      </trkpt>
      <trkpt lat="43.54646" lon="5.89795">
        <ele>341.23</ele>
        <time>2003-06-29T08:19:26Z</time>
      </trkpt>
      <trkpt lat="43.54658" lon="5.89818">
        <ele>341.33</ele>
        <time>2003-06-29T08:19:33Z</time>
      </trkpt>
      <trkpt lat="43.54671" lon="5.89838">
        <ele>341.66</ele>
        <time>2003-06-29T08:19:39Z</time>
      </trkpt>
      <trkpt lat="43.54681" lon="5.89859">
        <ele>343.36</ele>
        <time>2003-06-29T08:19:45Z</time>
      </trkpt>
      <trkpt lat="43.54684" lon="5.89885">
        <ele>344.78</ele>
        <time>2003-06-29T08:19:52Z</time>
      </trkpt>
      <trkpt lat="43.54692" lon="5.89909">
        <ele>342.97</ele>
        <time>2003-06-29T08:20:00Z</time>
      </trkpt>
      <trkpt lat="43.54695" lon="5.89935">
        <ele>345.29</ele>
        <time>2003-06-29T08:20:38Z</time>
      </trkpt>
      <trkpt lat="43.547" lon="5.89959">
        <ele>345.18</ele>
        <time>2003-06-29T08:20:45Z</time>
      </trkpt>
      <trkpt lat="43.54702" lon="5.89984">
        <ele>344.34</ele>
        <time>2003-06-29T08:20:52Z</time>
      </trkpt>
      <trkpt lat="43.54711" lon="5.9001">
        <ele>342.58</ele>
        <time>2003-06-29T08:20:59Z</time>
      </trkpt>
      <trkpt lat="43.54722" lon="5.90031">
        <ele>341.69</ele>
        <time>2003-06-29T08:21:05Z</time>
      </trkpt>
      <trkpt lat="43.54736" lon="5.90051">
        <ele>340.88</ele>
        <time>2003-06-29T08:21:13Z</time>
      </trkpt>
      <trkpt lat="43.54755" lon="5.90059">
        <ele>341.17</ele>
        <time>2003-06-29T08:21:21Z</time>
      </trkpt>
      <trkpt lat="43.54771" lon="5.90072">
        <ele>341.93</ele>
        <time>2003-06-29T08:21:28Z</time>
      </trkpt>
      <trkpt lat="43.54792" lon="5.90082">
        <ele>342.83</ele>
        <time>2003-06-29T08:21:35Z</time>
      </trkpt>
      <trkpt lat="43.54809" lon="5.90098">
        <ele>341.68</ele>
        <time>2003-06-29T08:21:41Z</time>
      </trkpt>
      <trkpt lat="43.54818" lon="5.90123">
        <ele>343.34</ele>
        <time>2003-06-29T08:21:47Z</time>
      </trkpt>
      <trkpt lat="43.54814" lon="5.90149">
        <ele>343.08</ele>
        <time>2003-06-29T08:21:54Z</time>
      </trkpt>
      <trkpt lat="43.54808" lon="5.90173">
        <ele>342.59</ele>
        <time>2003-06-29T08:22:00Z</time>
      </trkpt>
      <trkpt lat="43.548" lon="5.90199">
        <ele>344.74</ele>
        <time>2003-06-29T08:22:07Z</time>
      </trkpt>
      <trkpt lat="43.54792" lon="5.90224">
        <ele>345.57</ele>
        <time>2003-06-29T08:22:14Z</time>
      </trkpt>
      <trkpt lat="43.54788" lon="5.90248">
        <ele>346.4</ele>
        <time>2003-06-29T08:22:20Z</time>
      </trkpt>
      <trkpt lat="43.54783" lon="5.90273">
        <ele>348.21</ele>
        <time>2003-06-29T08:22:26Z</time>
      </trkpt>
      <trkpt lat="43.54778" lon="5.903">
        <ele>349.03</ele>
        <time>2003-06-29T08:22:33Z</time>
      </trkpt>
      <trkpt lat="43.54788" lon="5.90325">
        <ele>351.24</ele>
        <time>2003-06-29T08:22:39Z</time>
      </trkpt>
      <trkpt lat="43.54796" lon="5.90352">
        <ele>351.93</ele>
        <time>2003-06-29T08:22:46Z</time>
      </trkpt>
      <trkpt lat="43.54799" lon="5.90379">
        <ele>353.35</ele>
        <time>2003-06-29T08:22:53Z</time>
      </trkpt>
      <trkpt lat="43.54809" lon="5.90401">
        <ele>353.87</ele>
        <time>2003-06-29T08:23:00Z</time>
      </trkpt>
      <trkpt lat="43.54824" lon="5.9042">
        <ele>354.26</ele>
        <time>2003-06-29T08:23:07Z</time>
      </trkpt>
      <trkpt lat="43.54838" lon="5.90441">
        <ele>353.16</ele>
        <time>2003-06-29T08:23:13Z</time>
      </trkpt>
      <trkpt lat="43.54848" lon="5.90466">
        <ele>353.45</ele>
        <time>2003-06-29T08:23:20Z</time>
      </trkpt>
      <trkpt lat="43.5486" lon="5.90489">
        <ele>352.71</ele>
        <time>2003-06-29T08:23:27Z</time>
      </trkpt>
      <trkpt lat="43.54879" lon="5.90492">
        <ele>352.8</ele>
        <time>2003-06-29T08:23:34Z</time>
      </trkpt>
      <trkpt lat="43.54897" lon="5.90483">
        <ele>354.47</ele>
        <time>2003-06-29T08:23:40Z</time>
      </trkpt>
      <trkpt lat="43.54914" lon="5.9047">
        <ele>355.43</ele>
        <time>2003-06-29T08:23:46Z</time>
      </trkpt>
      <trkpt lat="43.54929" lon="5.90455">
        <ele>355.81</ele>
        <time>2003-06-29T08:23:52Z</time>
      </trkpt>
      <trkpt lat="43.54945" lon="5.90445">
        <ele>355.75</ele>
        <time>2003-06-29T08:23:58Z</time>
      </trkpt>
      <trkpt lat="43.54964" lon="5.90447">
        <ele>356.53</ele>
        <time>2003-06-29T08:24:52Z</time>
      </trkpt>
      <trkpt lat="43.54975" lon="5.90425">
        <ele>356.78</ele>
        <time>2003-06-29T08:25:00Z</time>
      </trkpt>
      <trkpt lat="43.54987" lon="5.90404">
        <ele>357.46</ele>
        <time>2003-06-29T08:25:07Z</time>
      </trkpt>
      <trkpt lat="43.55006" lon="5.9039">
        <ele>356.48</ele>
        <time>2003-06-29T08:25:14Z</time>
      </trkpt>
      <trkpt lat="43.55023" lon="5.90375">
        <ele>356.3</ele>
        <time>2003-06-29T08:25:21Z</time>
      </trkpt>
      <trkpt lat="43.55042" lon="5.90369">
        <ele>357.64</ele>
        <time>2003-06-29T08:25:28Z</time>
      </trkpt>
      <trkpt lat="43.5506" lon="5.90366">
        <ele>357.87</ele>
        <time>2003-06-29T08:25:34Z</time>
      </trkpt>
      <trkpt lat="43.55079" lon="5.90367">
        <ele>357.59</ele>
        <time>2003-06-29T08:25:40Z</time>
      </trkpt>
      <trkpt lat="43.55095" lon="5.90379">
        <ele>357.91</ele>
        <time>2003-06-29T08:25:47Z</time>
      </trkpt>
      <trkpt lat="43.55109" lon="5.90396">
        <ele>356.34</ele>
        <time>2003-06-29T08:25:52Z</time>
      </trkpt>
      <trkpt lat="43.55123" lon="5.90413">
        <ele>356.75</ele>
        <time>2003-06-29T08:25:57Z</time>
      </trkpt>
      <trkpt lat="43.55138" lon="5.90431">
        <ele>356.59</ele>
        <time>2003-06-29T08:26:03Z</time>
      </trkpt>
      <trkpt lat="43.55151" lon="5.90449">
        <ele>356</ele>
        <time>2003-06-29T08:26:09Z</time>
      </trkpt>
      <trkpt lat="43.55166" lon="5.90464">
        <ele>359.24</ele>
        <time>2003-06-29T08:26:16Z</time>
      </trkpt>
      <trkpt lat="43.55179" lon="5.90483">
        <ele>361.26</ele>
        <time>2003-06-29T08:26:25Z</time>
      </trkpt>
      <trkpt lat="43.55196" lon="5.90495">
        <ele>359.57</ele>
        <time>2003-06-29T08:26:32Z</time>
      </trkpt>
      <trkpt lat="43.55213" lon="5.90504">
        <ele>359.53</ele>
        <time>2003-06-29T08:26:38Z</time>
      </trkpt>
      <trkpt lat="43.55232" lon="5.90508">
        <ele>359.13</ele>
        <time>2003-06-29T08:26:44Z</time>
      </trkpt>
      <trkpt lat="43.55252" lon="5.90516">
        <ele>360.43</ele>
        <time>2003-06-29T08:26:51Z</time>
      </trkpt>
      <trkpt lat="43.55269" lon="5.90525">
        <ele>362.26</ele>
        <time>2003-06-29T08:26:57Z</time>
      </trkpt>
      <trkpt lat="43.55287" lon="5.9054">
        <ele>362.75</ele>
        <time>2003-06-29T08:27:04Z</time>
      </trkpt>
      <trkpt lat="43.55302" lon="5.90558">
        <ele>362.7</ele>
        <time>2003-06-29T08:27:09Z</time>
      </trkpt>
      <trkpt lat="43.55314" lon="5.9058">
        <ele>361.16</ele>
        <time>2003-06-29T08:27:15Z</time>
      </trkpt>
      <trkpt lat="43.55329" lon="5.90597">
        <ele>361.05</ele>
        <time>2003-06-29T08:27:21Z</time>
      </trkpt>
      <trkpt lat="43.55346" lon="5.90608">
        <ele>362.15</ele>
        <time>2003-06-29T08:27:28Z</time>
      </trkpt>
      <trkpt lat="43.55363" lon="5.90618">
        <ele>364.24</ele>
        <time>2003-06-29T08:27:35Z</time>
      </trkpt>
      <trkpt lat="43.55374" lon="5.90638">
        <ele>364.9</ele>
        <time>2003-06-29T08:27:43Z</time>
      </trkpt>
      <trkpt lat="43.55367" lon="5.90662">
        <ele>365.65</ele>
        <time>2003-06-29T08:27:50Z</time>
      </trkpt>
      <trkpt lat="43.55366" lon="5.90688">
        <ele>366.16</ele>
        <time>2003-06-29T08:28:00Z</time>
      </trkpt>
      <trkpt lat="43.55376" lon="5.90711">
        <ele>367.84</ele>
        <time>2003-06-29T08:28:11Z</time>
      </trkpt>
      <trkpt lat="43.55385" lon="5.90734">
        <ele>368.86</ele>
        <time>2003-06-29T08:28:21Z</time>
      </trkpt>
      <trkpt lat="43.55384" lon="5.90759">
        <ele>370.18</ele>
        <time>2003-06-29T08:28:30Z</time>
      </trkpt>
      <trkpt lat="43.55394" lon="5.90782">
        <ele>371.88</ele>
        <time>2003-06-29T08:28:40Z</time>
      </trkpt>
      <trkpt lat="43.55394" lon="5.90808">
        <ele>374.48</ele>
        <time>2003-06-29T08:28:50Z</time>
      </trkpt>
      <trkpt lat="43.55404" lon="5.90829">
        <ele>376.39</ele>
        <time>2003-06-29T08:28:59Z</time>
      </trkpt>
      <trkpt lat="43.55406" lon="5.90855">
        <ele>377.76</ele>
        <time>2003-06-29T08:29:07Z</time>
      </trkpt>
      <trkpt lat="43.55408" lon="5.90881">
        <ele>377.74</ele>
        <time>2003-06-29T08:29:15Z</time>
      </trkpt>
      <trkpt lat="43.5542" lon="5.90901">
        <ele>377.84</ele>
        <time>2003-06-29T08:29:22Z</time>
      </trkpt>
      <trkpt lat="43.55438" lon="5.90905">
        <ele>378</ele>
        <time>2003-06-29T08:29:29Z</time>
      </trkpt>
      <trkpt lat="43.55453" lon="5.90923">
        <ele>376.92</ele>
        <time>2003-06-29T08:29:35Z</time>
      </trkpt>
      <trkpt lat="43.55465" lon="5.90944">
        <ele>375.53</ele>
        <time>2003-06-29T08:29:40Z</time>
      </trkpt>
      <trkpt lat="43.55487" lon="5.90954">
        <ele>375.05</ele>
        <time>2003-06-29T08:29:45Z</time>
      </trkpt>
      <trkpt lat="43.55505" lon="5.90954">
        <ele>374.86</ele>
        <time>2003-06-29T08:29:49Z</time>
      </trkpt>
      <trkpt lat="43.55521" lon="5.90967">
        <ele>375.05</ele>
        <time>2003-06-29T08:29:55Z</time>
      </trkpt>
      <trkpt lat="43.55539" lon="5.90976">
        <ele>375.73</ele>
        <time>2003-06-29T08:30:01Z</time>
      </trkpt>
      <trkpt lat="43.55556" lon="5.90988">
        <ele>375.67</ele>
        <time>2003-06-29T08:30:07Z</time>
      </trkpt>
      <trkpt lat="43.55569" lon="5.91006">
        <ele>376.14</ele>
        <time>2003-06-29T08:30:15Z</time>
      </trkpt>
      <trkpt lat="43.5559" lon="5.9101">
        <ele>377.56</ele>
        <time>2003-06-29T08:30:24Z</time>
      </trkpt>
      <trkpt lat="43.55606" lon="5.91001">
        <ele>378.08</ele>
        <time>2003-06-29T08:30:30Z</time>
      </trkpt>
      <trkpt lat="43.55625" lon="5.91004">
        <ele>378.27</ele>
        <time>2003-06-29T08:30:39Z</time>
      </trkpt>
      <trkpt lat="43.55645" lon="5.9101">
        <ele>379.81</ele>
        <time>2003-06-29T08:30:47Z</time>
      </trkpt>
      <trkpt lat="43.55665" lon="5.91005">
        <ele>380.59</ele>
        <time>2003-06-29T08:30:54Z</time>
      </trkpt>
      <trkpt lat="43.55682" lon="5.90997">
        <ele>380.24</ele>
        <time>2003-06-29T08:31:00Z</time>
      </trkpt>
      <trkpt lat="43.55701" lon="5.90997">
        <ele>382.45</ele>
        <time>2003-06-29T08:31:06Z</time>
      </trkpt>
      <trkpt lat="43.55721" lon="5.91001">
        <ele>384.31</ele>
        <time>2003-06-29T08:31:12Z</time>
      </trkpt>
      <trkpt lat="43.5574" lon="5.90992">
        <ele>382.13</ele>
        <time>2003-06-29T08:31:19Z</time>
      </trkpt>
      <trkpt lat="43.55758" lon="5.90977">
        <ele>379.87</ele>
        <time>2003-06-29T08:31:26Z</time>
      </trkpt>
      <trkpt lat="43.55775" lon="5.90963">
        <ele>378.74</ele>
        <time>2003-06-29T08:31:32Z</time>
      </trkpt>
      <trkpt lat="43.55788" lon="5.90946">
        <ele>378.84</ele>
        <time>2003-06-29T08:31:38Z</time>
      </trkpt>
      <trkpt lat="43.55806" lon="5.90932">
        <ele>378.71</ele>
        <time>2003-06-29T08:31:45Z</time>
      </trkpt>
      <trkpt lat="43.55823" lon="5.90914">
        <ele>378.27</ele>
        <time>2003-06-29T08:31:52Z</time>
      </trkpt>
      <trkpt lat="43.55839" lon="5.90898">
        <ele>377.38</ele>
        <time>2003-06-29T08:31:59Z</time>
      </trkpt>
      <trkpt lat="43.55853" lon="5.90879">
        <ele>375.74</ele>
        <time>2003-06-29T08:32:06Z</time>
      </trkpt>
      <trkpt lat="43.55866" lon="5.90859">
        <ele>375.81</ele>
        <time>2003-06-29T08:32:12Z</time>
      </trkpt>
      <trkpt lat="43.55882" lon="5.90844">
        <ele>375.59</ele>
        <time>2003-06-29T08:32:19Z</time>
      </trkpt>
      <trkpt lat="43.55898" lon="5.90826">
        <ele>376.58</ele>
        <time>2003-06-29T08:32:26Z</time>
      </trkpt>
      <trkpt lat="43.55916" lon="5.90813">
        <ele>377.39</ele>
        <time>2003-06-29T08:32:32Z</time>
      </trkpt>
      <trkpt lat="43.55933" lon="5.90796">
        <ele>377.79</ele>
        <time>2003-06-29T08:32:38Z</time>
      </trkpt>
      <trkpt lat="43.55946" lon="5.9078">
        <ele>377.78</ele>
        <time>2003-06-29T08:32:43Z</time>
      </trkpt>
      <trkpt lat="43.55962" lon="5.90762">
        <ele>378.53</ele>
        <time>2003-06-29T08:32:49Z</time>
      </trkpt>
      <trkpt lat="43.55978" lon="5.90745">
        <ele>380.45</ele>
        <time>2003-06-29T08:32:55Z</time>
      </trkpt>
      <trkpt lat="43.55995" lon="5.90728">
        <ele>382.11</ele>
        <time>2003-06-29T08:33:01Z</time>
      </trkpt>
      <trkpt lat="43.56009" lon="5.90712">
        <ele>381.97</ele>
        <time>2003-06-29T08:33:07Z</time>
      </trkpt>
      <trkpt lat="43.56022" lon="5.90694">
        <ele>381.5</ele>
        <time>2003-06-29T08:33:13Z</time>
      </trkpt>
      <trkpt lat="43.56038" lon="5.90681">
        <ele>381.16</ele>
        <time>2003-06-29T08:33:19Z</time>
      </trkpt>
      <trkpt lat="43.56054" lon="5.9067">
        <ele>381.16</ele>
        <time>2003-06-29T08:33:25Z</time>
      </trkpt>
      <trkpt lat="43.56066" lon="5.9065">
        <ele>381.36</ele>
        <time>2003-06-29T08:33:33Z</time>
      </trkpt>
      <trkpt lat="43.56063" lon="5.90625">
        <ele>382.63</ele>
        <time>2003-06-29T08:33:40Z</time>
      </trkpt>
      <trkpt lat="43.56059" lon="5.90598">
        <ele>384.67</ele>
        <time>2003-06-29T08:33:47Z</time>
      </trkpt>
      <trkpt lat="43.56063" lon="5.90574">
        <ele>385.15</ele>
        <time>2003-06-29T08:33:54Z</time>
      </trkpt>
      <trkpt lat="43.56071" lon="5.90551">
        <ele>387.11</ele>
        <time>2003-06-29T08:34:01Z</time>
      </trkpt>
      <trkpt lat="43.56077" lon="5.90527">
        <ele>389.71</ele>
        <time>2003-06-29T08:34:09Z</time>
      </trkpt>
      <trkpt lat="43.56084" lon="5.90501">
        <ele>390.95</ele>
        <time>2003-06-29T08:34:16Z</time>
      </trkpt>
      <trkpt lat="43.56096" lon="5.90479">
        <ele>392.62</ele>
        <time>2003-06-29T08:34:24Z</time>
      </trkpt>
      <trkpt lat="43.56109" lon="5.90459">
        <ele>394.46</ele>
        <time>2003-06-29T08:34:31Z</time>
      </trkpt>
      <trkpt lat="43.56122" lon="5.90441">
        <ele>394.49</ele>
        <time>2003-06-29T08:34:37Z</time>
      </trkpt>
      <trkpt lat="43.56139" lon="5.90434">
        <ele>395</ele>
        <time>2003-06-29T08:34:45Z</time>
      </trkpt>
      <trkpt lat="43.56156" lon="5.90447">
        <ele>396.38</ele>
        <time>2003-06-29T08:36:26Z</time>
      </trkpt>
      <trkpt lat="43.56175" lon="5.90449">
        <ele>395.59</ele>
        <time>2003-06-29T08:36:33Z</time>
      </trkpt>
      <trkpt lat="43.56194" lon="5.90459">
        <ele>396.78</ele>
        <time>2003-06-29T08:36:41Z</time>
      </trkpt>
      <trkpt lat="43.56211" lon="5.90465">
        <ele>397.14</ele>
        <time>2003-06-29T08:36:49Z</time>
      </trkpt>
      <trkpt lat="43.56226" lon="5.9045">
        <ele>396.97</ele>
        <time>2003-06-29T08:36:56Z</time>
      </trkpt>
      <trkpt lat="43.5624" lon="5.90434">
        <ele>397.71</ele>
        <time>2003-06-29T08:37:02Z</time>
      </trkpt>
      <trkpt lat="43.56258" lon="5.90418">
        <ele>397.71</ele>
        <time>2003-06-29T08:37:09Z</time>
      </trkpt>
      <trkpt lat="43.56275" lon="5.90403">
        <ele>397.38</ele>
        <time>2003-06-29T08:37:16Z</time>
      </trkpt>
      <trkpt lat="43.56293" lon="5.90392">
        <ele>397.14</ele>
        <time>2003-06-29T08:37:26Z</time>
      </trkpt>
      <trkpt lat="43.5631" lon="5.9038">
        <ele>396.57</ele>
        <time>2003-06-29T08:37:34Z</time>
      </trkpt>
      <trkpt lat="43.56329" lon="5.90372">
        <ele>393.46</ele>
        <time>2003-06-29T08:38:43Z</time>
      </trkpt>
      <trkpt lat="43.56348" lon="5.90368">
        <ele>395.38</ele>
        <time>2003-06-29T08:38:50Z</time>
      </trkpt>
      <trkpt lat="43.56366" lon="5.90362">
        <ele>397.66</ele>
        <time>2003-06-29T08:38:56Z</time>
      </trkpt>
      <trkpt lat="43.56384" lon="5.90354">
        <ele>399.79</ele>
        <time>2003-06-29T08:39:02Z</time>
      </trkpt>
      <trkpt lat="43.56402" lon="5.90344">
        <ele>400.45</ele>
        <time>2003-06-29T08:39:08Z</time>
      </trkpt>
      <trkpt lat="43.56421" lon="5.90335">
        <ele>399.22</ele>
        <time>2003-06-29T08:39:14Z</time>
      </trkpt>
      <trkpt lat="43.5644" lon="5.90325">
        <ele>399.19</ele>
        <time>2003-06-29T08:39:20Z</time>
      </trkpt>
      <trkpt lat="43.56458" lon="5.90313">
        <ele>397.99</ele>
        <time>2003-06-29T08:39:26Z</time>
      </trkpt>
      <trkpt lat="43.56474" lon="5.90297">
        <ele>397.26</ele>
        <time>2003-06-29T08:39:32Z</time>
      </trkpt>
      <trkpt lat="43.56492" lon="5.90288">
        <ele>397.44</ele>
        <time>2003-06-29T08:39:38Z</time>
      </trkpt>
      <trkpt lat="43.56509" lon="5.90278">
        <ele>398.68</ele>
        <time>2003-06-29T08:39:44Z</time>
      </trkpt>
      <trkpt lat="43.56526" lon="5.90268">
        <ele>399.05</ele>
        <time>2003-06-29T08:39:49Z</time>
      </trkpt>
      <trkpt lat="43.56545" lon="5.90258">
        <ele>398.5</ele>
        <time>2003-06-29T08:39:54Z</time>
      </trkpt>
      <trkpt lat="43.56566" lon="5.90247">
        <ele>397.95</ele>
        <time>2003-06-29T08:39:59Z</time>
      </trkpt>
      <trkpt lat="43.56583" lon="5.90238">
        <ele>397.75</ele>
        <time>2003-06-29T08:40:03Z</time>
      </trkpt>
      <trkpt lat="43.56603" lon="5.90224">
        <ele>396.48</ele>
        <time>2003-06-29T08:40:08Z</time>
      </trkpt>
      <trkpt lat="43.5662" lon="5.90209">
        <ele>395.43</ele>
        <time>2003-06-29T08:40:12Z</time>
      </trkpt>
      <trkpt lat="43.5664" lon="5.90192">
        <ele>392.22</ele>
        <time>2003-06-29T08:40:16Z</time>
      </trkpt>
      <trkpt lat="43.56657" lon="5.90175">
        <ele>389.77</ele>
        <time>2003-06-29T08:40:19Z</time>
      </trkpt>
      <trkpt lat="43.56673" lon="5.90158">
        <ele>388.19</ele>
        <time>2003-06-29T08:40:23Z</time>
      </trkpt>
      <trkpt lat="43.56685" lon="5.90138">
        <ele>385.61</ele>
        <time>2003-06-29T08:40:34Z</time>
      </trkpt>
      <trkpt lat="43.56695" lon="5.90115">
        <ele>384.67</ele>
        <time>2003-06-29T08:40:42Z</time>
      </trkpt>
      <trkpt lat="43.56704" lon="5.9009">
        <ele>385.31</ele>
        <time>2003-06-29T08:40:48Z</time>
      </trkpt>
      <trkpt lat="43.56707" lon="5.90065">
        <ele>385.9</ele>
        <time>2003-06-29T08:40:54Z</time>
      </trkpt>
      <trkpt lat="43.56712" lon="5.90038">
        <ele>386.29</ele>
        <time>2003-06-29T08:41:00Z</time>
      </trkpt>
      <trkpt lat="43.5672" lon="5.90012">
        <ele>387.74</ele>
        <time>2003-06-29T08:41:07Z</time>
      </trkpt>
      <trkpt lat="43.56715" lon="5.89986">
        <ele>390.32</ele>
        <time>2003-06-29T08:41:14Z</time>
      </trkpt>
      <trkpt lat="43.56732" lon="5.89974">
        <ele>393.24</ele>
        <time>2003-06-29T08:41:27Z</time>
      </trkpt>
      <trkpt lat="43.56713" lon="5.89977">
        <ele>395.1</ele>
        <time>2003-06-29T08:43:35Z</time>
      </trkpt>
      <trkpt lat="43.56696" lon="5.89981">
        <ele>395.84</ele>
        <time>2003-06-29T08:43:44Z</time>
      </trkpt>
      <trkpt lat="43.56676" lon="5.89988">
        <ele>396.58</ele>
        <time>2003-06-29T08:43:53Z</time>
      </trkpt>
      <trkpt lat="43.56659" lon="5.89998">
        <ele>397.24</ele>
        <time>2003-06-29T08:44:01Z</time>
      </trkpt>
      <trkpt lat="43.56641" lon="5.90003">
        <ele>397.94</ele>
        <time>2003-06-29T08:44:12Z</time>
      </trkpt>
      <trkpt lat="43.56625" lon="5.89992">
        <ele>397.68</ele>
        <time>2003-06-29T08:44:21Z</time>
      </trkpt>
      <trkpt lat="43.56612" lon="5.89974">
        <ele>398.13</ele>
        <time>2003-06-29T08:44:31Z</time>
      </trkpt>
      <trkpt lat="43.56605" lon="5.89949">
        <ele>398.11</ele>
        <time>2003-06-29T08:44:41Z</time>
      </trkpt>
      <trkpt lat="43.56598" lon="5.89924">
        <ele>397.75</ele>
        <time>2003-06-29T08:44:51Z</time>
      </trkpt>
      <trkpt lat="43.56591" lon="5.899">
        <ele>399.55</ele>
        <time>2003-06-29T08:45:00Z</time>
      </trkpt>
      <trkpt lat="43.56586" lon="5.89875">
        <ele>399.83</ele>
        <time>2003-06-29T08:45:09Z</time>
      </trkpt>
      <trkpt lat="43.56581" lon="5.8985">
        <ele>402.21</ele>
        <time>2003-06-29T08:45:18Z</time>
      </trkpt>
      <trkpt lat="43.56573" lon="5.89827">
        <ele>404.71</ele>
        <time>2003-06-29T08:45:29Z</time>
      </trkpt>
      <trkpt lat="43.56562" lon="5.89807">
        <ele>406.52</ele>
        <time>2003-06-29T08:45:39Z</time>
      </trkpt>
      <trkpt lat="43.56547" lon="5.8979">
        <ele>408.64</ele>
        <time>2003-06-29T08:45:48Z</time>
      </trkpt>
      <trkpt lat="43.56532" lon="5.89774">
        <ele>409.07</ele>
        <time>2003-06-29T08:45:56Z</time>
      </trkpt>
      <trkpt lat="43.56526" lon="5.89751">
        <ele>410.8</ele>
        <time>2003-06-29T08:46:04Z</time>
      </trkpt>
      <trkpt lat="43.56522" lon="5.89724">
        <ele>411.46</ele>
        <time>2003-06-29T08:46:13Z</time>
      </trkpt>
      <trkpt lat="43.56521" lon="5.89699">
        <ele>410.33</ele>
        <time>2003-06-29T08:46:23Z</time>
      </trkpt>
      <trkpt lat="43.56519" lon="5.89673">
        <ele>407.77</ele>
        <time>2003-06-29T08:47:16Z</time>
      </trkpt>
      <trkpt lat="43.56526" lon="5.89648">
        <ele>407.75</ele>
        <time>2003-06-29T08:47:25Z</time>
      </trkpt>
      <trkpt lat="43.56531" lon="5.89621">
        <ele>407.65</ele>
        <time>2003-06-29T08:47:32Z</time>
      </trkpt>
      <trkpt lat="43.56538" lon="5.89594">
        <ele>408.06</ele>
        <time>2003-06-29T08:47:39Z</time>
      </trkpt>
      <trkpt lat="43.56543" lon="5.89569">
        <ele>408.09</ele>
        <time>2003-06-29T08:47:44Z</time>
      </trkpt>
      <trkpt lat="43.56548" lon="5.89542">
        <ele>407.56</ele>
        <time>2003-06-29T08:47:49Z</time>
      </trkpt>
      <trkpt lat="43.56555" lon="5.89515">
        <ele>406.84</ele>
        <time>2003-06-29T08:47:54Z</time>
      </trkpt>
      <trkpt lat="43.56561" lon="5.89489">
        <ele>405.98</ele>
        <time>2003-06-29T08:47:59Z</time>
      </trkpt>
      <trkpt lat="43.56567" lon="5.89461">
        <ele>406.64</ele>
        <time>2003-06-29T08:48:04Z</time>
      </trkpt>
      <trkpt lat="43.5657" lon="5.89435">
        <ele>407.25</ele>
        <time>2003-06-29T08:48:09Z</time>
      </trkpt>
      <trkpt lat="43.56577" lon="5.89412">
        <ele>407.57</ele>
        <time>2003-06-29T08:48:52Z</time>
      </trkpt>
      <trkpt lat="43.56586" lon="5.89388">
        <ele>407.85</ele>
        <time>2003-06-29T08:49:01Z</time>
      </trkpt>
      <trkpt lat="43.56594" lon="5.89366">
        <ele>408.44</ele>
        <time>2003-06-29T08:49:07Z</time>
      </trkpt>
      <trkpt lat="43.56598" lon="5.89338">
        <ele>409.02</ele>
        <time>2003-06-29T08:49:13Z</time>
      </trkpt>
      <trkpt lat="43.56606" lon="5.89311">
        <ele>409.66</ele>
        <time>2003-06-29T08:49:19Z</time>
      </trkpt>
      <trkpt lat="43.56614" lon="5.89286">
        <ele>409.87</ele>
        <time>2003-06-29T08:49:24Z</time>
      </trkpt>
      <trkpt lat="43.56619" lon="5.89259">
        <ele>409.31</ele>
        <time>2003-06-29T08:49:29Z</time>
      </trkpt>
      <trkpt lat="43.56625" lon="5.89231">
        <ele>408.32</ele>
        <time>2003-06-29T08:49:35Z</time>
      </trkpt>
      <trkpt lat="43.56625" lon="5.89202">
        <ele>407.3</ele>
        <time>2003-06-29T08:49:41Z</time>
      </trkpt>
      <trkpt lat="43.56629" lon="5.89177">
        <ele>406.68</ele>
        <time>2003-06-29T08:49:46Z</time>
      </trkpt>
      <trkpt lat="43.56635" lon="5.89149">
        <ele>407.09</ele>
        <time>2003-06-29T08:49:52Z</time>
      </trkpt>
      <trkpt lat="43.56637" lon="5.89122">
        <ele>407.68</ele>
        <time>2003-06-29T08:49:57Z</time>
      </trkpt>
      <trkpt lat="43.56639" lon="5.89097">
        <ele>406.81</ele>
        <time>2003-06-29T08:50:02Z</time>
      </trkpt>
      <trkpt lat="43.56633" lon="5.89074">
        <ele>406.44</ele>
        <time>2003-06-29T08:50:07Z</time>
      </trkpt>
      <trkpt lat="43.56626" lon="5.89046">
        <ele>407.55</ele>
        <time>2003-06-29T08:50:13Z</time>
      </trkpt>
      <trkpt lat="43.56619" lon="5.89022">
        <ele>408.3</ele>
        <time>2003-06-29T08:50:19Z</time>
      </trkpt>
      <trkpt lat="43.56617" lon="5.88994">
        <ele>409.53</ele>
        <time>2003-06-29T08:50:25Z</time>
      </trkpt>
      <trkpt lat="43.56618" lon="5.88969">
        <ele>410.3</ele>
        <time>2003-06-29T08:50:31Z</time>
      </trkpt>
      <trkpt lat="43.56623" lon="5.88944">
        <ele>411.37</ele>
        <time>2003-06-29T08:50:37Z</time>
      </trkpt>
      <trkpt lat="43.5663" lon="5.8892">
        <ele>411.85</ele>
        <time>2003-06-29T08:50:43Z</time>
      </trkpt>
      <trkpt lat="43.56637" lon="5.88896">
        <ele>412.49</ele>
        <time>2003-06-29T08:50:49Z</time>
      </trkpt>
      <trkpt lat="43.5664" lon="5.88869">
        <ele>415.19</ele>
        <time>2003-06-29T08:50:57Z</time>
      </trkpt>
      <trkpt lat="43.56637" lon="5.88842">
        <ele>419.25</ele>
        <time>2003-06-29T08:51:57Z</time>
      </trkpt>
      <trkpt lat="43.56634" lon="5.88817">
        <ele>419.89</ele>
        <time>2003-06-29T08:52:04Z</time>
      </trkpt>
      <trkpt lat="43.5664" lon="5.88791">
        <ele>420.72</ele>
        <time>2003-06-29T08:52:11Z</time>
      </trkpt>
      <trkpt lat="43.56648" lon="5.88766">
        <ele>420.62</ele>
        <time>2003-06-29T08:52:17Z</time>
      </trkpt>
      <trkpt lat="43.56655" lon="5.8874">
        <ele>421.06</ele>
        <time>2003-06-29T08:52:23Z</time>
      </trkpt>
      <trkpt lat="43.56662" lon="5.88714">
        <ele>420.31</ele>
        <time>2003-06-29T08:52:29Z</time>
      </trkpt>
      <trkpt lat="43.56664" lon="5.88687">
        <ele>419.45</ele>
        <time>2003-06-29T08:52:35Z</time>
      </trkpt>
      <trkpt lat="43.56667" lon="5.88661">
        <ele>419.17</ele>
        <time>2003-06-29T08:52:41Z</time>
      </trkpt>
      <trkpt lat="43.5667" lon="5.88633">
        <ele>419.27</ele>
        <time>2003-06-29T08:52:47Z</time>
      </trkpt>
      <trkpt lat="43.56676" lon="5.88607">
        <ele>419.85</ele>
        <time>2003-06-29T08:52:53Z</time>
      </trkpt>
      <trkpt lat="43.56689" lon="5.88585">
        <ele>420.07</ele>
        <time>2003-06-29T08:53:00Z</time>
      </trkpt>
      <trkpt lat="43.56673" lon="5.88574">
        <ele>421.54</ele>
        <time>2003-06-29T08:53:12Z</time>
      </trkpt>
      <trkpt lat="43.5669" lon="5.8856">
        <ele>422.71</ele>
        <time>2003-06-29T08:54:03Z</time>
      </trkpt>
      <trkpt lat="43.56708" lon="5.8855">
        <ele>422.31</ele>
        <time>2003-06-29T08:54:09Z</time>
      </trkpt>
      <trkpt lat="43.56727" lon="5.8854">
        <ele>421.4</ele>
        <time>2003-06-29T08:54:14Z</time>
      </trkpt>
      <trkpt lat="43.56746" lon="5.8853">
        <ele>420.91</ele>
        <time>2003-06-29T08:54:19Z</time>
      </trkpt>
      <trkpt lat="43.56765" lon="5.88519">
        <ele>420.6</ele>
        <time>2003-06-29T08:54:24Z</time>
      </trkpt>
      <trkpt lat="43.56782" lon="5.88509">
        <ele>419.63</ele>
        <time>2003-06-29T08:54:29Z</time>
      </trkpt>
      <trkpt lat="43.568" lon="5.885">
        <ele>419.5</ele>
        <time>2003-06-29T08:54:34Z</time>
      </trkpt>
      <trkpt lat="43.56819" lon="5.88492">
        <ele>418.73</ele>
        <time>2003-06-29T08:54:39Z</time>
      </trkpt>
      <trkpt lat="43.56836" lon="5.88481">
        <ele>419.03</ele>
        <time>2003-06-29T08:54:44Z</time>
      </trkpt>
      <trkpt lat="43.56853" lon="5.88471">
        <ele>419.87</ele>
        <time>2003-06-29T08:54:49Z</time>
      </trkpt>
      <trkpt lat="43.56872" lon="5.88462">
        <ele>419.79</ele>
        <time>2003-06-29T08:54:55Z</time>
      </trkpt>
      <trkpt lat="43.56891" lon="5.88454">
        <ele>419.96</ele>
        <time>2003-06-29T08:55:02Z</time>
      </trkpt>
      <trkpt lat="43.56892" lon="5.88426">
        <ele>419.93</ele>
        <time>2003-06-29T08:55:14Z</time>
      </trkpt>
      <trkpt lat="43.56879" lon="5.88407">
        <ele>420.34</ele>
        <time>2003-06-29T08:55:22Z</time>
      </trkpt>
      <trkpt lat="43.56866" lon="5.8839">
        <ele>421.34</ele>
        <time>2003-06-29T08:55:30Z</time>
      </trkpt>
      <trkpt lat="43.56851" lon="5.88371">
        <ele>422.84</ele>
        <time>2003-06-29T08:55:38Z</time>
      </trkpt>
      <trkpt lat="43.56835" lon="5.88355">
        <ele>423.76</ele>
        <time>2003-06-29T08:55:47Z</time>
      </trkpt>
      <trkpt lat="43.56833" lon="5.88329">
        <ele>425.33</ele>
        <time>2003-06-29T08:55:55Z</time>
      </trkpt>
      <trkpt lat="43.56833" lon="5.88303">
        <ele>427.4</ele>
        <time>2003-06-29T08:56:02Z</time>
      </trkpt>
      <trkpt lat="43.5683" lon="5.88278">
        <ele>428.92</ele>
        <time>2003-06-29T08:56:10Z</time>
      </trkpt>
      <trkpt lat="43.56829" lon="5.88251">
        <ele>431.6</ele>
        <time>2003-06-29T08:56:20Z</time>
      </trkpt>
      <trkpt lat="43.56827" lon="5.88225">
        <ele>434.47</ele>
        <time>2003-06-29T08:56:30Z</time>
      </trkpt>
      <trkpt lat="43.56832" lon="5.88199">
        <ele>437.61</ele>
        <time>2003-06-29T08:56:40Z</time>
      </trkpt>
      <trkpt lat="43.56831" lon="5.88171">
        <ele>439.32</ele>
        <time>2003-06-29T08:56:48Z</time>
      </trkpt>
      <trkpt lat="43.56831" lon="5.88145">
        <ele>440.02</ele>
        <time>2003-06-29T08:56:54Z</time>
      </trkpt>
      <trkpt lat="43.5683" lon="5.88116">
        <ele>440.66</ele>
        <time>2003-06-29T08:57:01Z</time>
      </trkpt>
      <trkpt lat="43.56826" lon="5.88088">
        <ele>440.74</ele>
        <time>2003-06-29T08:57:07Z</time>
      </trkpt>
      <trkpt lat="43.56825" lon="5.88059">
        <ele>440.77</ele>
        <time>2003-06-29T08:57:12Z</time>
      </trkpt>
      <trkpt lat="43.56816" lon="5.88036">
        <ele>440.67</ele>
        <time>2003-06-29T08:57:28Z</time>
      </trkpt>
      <trkpt lat="43.56801" lon="5.88017">
        <ele>440.17</ele>
        <time>2003-06-29T08:57:39Z</time>
      </trkpt>
      <trkpt lat="43.56785" lon="5.88005">
        <ele>439.83</ele>
        <time>2003-06-29T08:57:45Z</time>
      </trkpt>
      <trkpt lat="43.56769" lon="5.8799">
        <ele>439.47</ele>
        <time>2003-06-29T08:57:51Z</time>
      </trkpt>
      <trkpt lat="43.56759" lon="5.87965">
        <ele>439.26</ele>
        <time>2003-06-29T08:57:57Z</time>
      </trkpt>
      <trkpt lat="43.56757" lon="5.87939">
        <ele>439.5</ele>
        <time>2003-06-29T08:58:04Z</time>
      </trkpt>
      <trkpt lat="43.56763" lon="5.87914">
        <ele>439.07</ele>
        <time>2003-06-29T08:58:11Z</time>
      </trkpt>
      <trkpt lat="43.56762" lon="5.87889">
        <ele>437.96</ele>
        <time>2003-06-29T08:58:20Z</time>
      </trkpt>
      <trkpt lat="43.56758" lon="5.87862">
        <ele>437.54</ele>
        <time>2003-06-29T08:58:29Z</time>
      </trkpt>
      <trkpt lat="43.56756" lon="5.87836">
        <ele>438.56</ele>
        <time>2003-06-29T08:58:36Z</time>
      </trkpt>
      <trkpt lat="43.56738" lon="5.87827">
        <ele>440.2</ele>
        <time>2003-06-29T09:01:49Z</time>
      </trkpt>
      <trkpt lat="43.5672" lon="5.87822">
        <ele>438.76</ele>
        <time>2003-06-29T09:01:54Z</time>
      </trkpt>
      <trkpt lat="43.567" lon="5.87818">
        <ele>437.42</ele>
        <time>2003-06-29T09:01:59Z</time>
      </trkpt>
      <trkpt lat="43.56682" lon="5.87812">
        <ele>436.16</ele>
        <time>2003-06-29T09:02:03Z</time>
      </trkpt>
      <trkpt lat="43.56662" lon="5.87802">
        <ele>434.6</ele>
        <time>2003-06-29T09:02:07Z</time>
      </trkpt>
      <trkpt lat="43.56643" lon="5.87794">
        <ele>432.69</ele>
        <time>2003-06-29T09:02:11Z</time>
      </trkpt>
      <trkpt lat="43.56628" lon="5.87769">
        <ele>431.03</ele>
        <time>2003-06-29T09:02:16Z</time>
      </trkpt>
      <trkpt lat="43.56616" lon="5.87747">
        <ele>429.61</ele>
        <time>2003-06-29T09:02:20Z</time>
      </trkpt>
      <trkpt lat="43.56603" lon="5.87726">
        <ele>427.91</ele>
        <time>2003-06-29T09:02:24Z</time>
      </trkpt>
      <trkpt lat="43.56588" lon="5.8771">
        <ele>425.25</ele>
        <time>2003-06-29T09:02:28Z</time>
      </trkpt>
      <trkpt lat="43.56567" lon="5.87697">
        <ele>421.91</ele>
        <time>2003-06-29T09:02:33Z</time>
      </trkpt>
      <trkpt lat="43.56547" lon="5.87692">
        <ele>420.59</ele>
        <time>2003-06-29T09:02:37Z</time>
      </trkpt>
      <trkpt lat="43.56527" lon="5.87689">
        <ele>419.64</ele>
        <time>2003-06-29T09:02:42Z</time>
      </trkpt>
      <trkpt lat="43.56518" lon="5.87666">
        <ele>421.16</ele>
        <time>2003-06-29T09:02:50Z</time>
      </trkpt>
      <trkpt lat="43.56516" lon="5.8764">
        <ele>420.66</ele>
        <time>2003-06-29T09:02:57Z</time>
      </trkpt>
      <trkpt lat="43.56518" lon="5.87615">
        <ele>420.87</ele>
        <time>2003-06-29T09:03:04Z</time>
      </trkpt>
      <trkpt lat="43.56527" lon="5.8759">
        <ele>422.64</ele>
        <time>2003-06-29T09:03:12Z</time>
      </trkpt>
      <trkpt lat="43.56537" lon="5.87569">
        <ele>423.29</ele>
        <time>2003-06-29T09:03:19Z</time>
      </trkpt>
      <trkpt lat="43.56546" lon="5.87545">
        <ele>423.75</ele>
        <time>2003-06-29T09:03:26Z</time>
      </trkpt>
      <trkpt lat="43.56535" lon="5.87523">
        <ele>425.79</ele>
        <time>2003-06-29T09:03:37Z</time>
      </trkpt>
      <trkpt lat="43.56517" lon="5.8752">
        <ele>425.56</ele>
        <time>2003-06-29T09:03:43Z</time>
      </trkpt>
      <trkpt lat="43.56497" lon="5.87511">
        <ele>425.57</ele>
        <time>2003-06-29T09:03:49Z</time>
      </trkpt>
      <trkpt lat="43.56477" lon="5.87513">
        <ele>424.27</ele>
        <time>2003-06-29T09:03:56Z</time>
      </trkpt>
      <trkpt lat="43.56456" lon="5.87517">
        <ele>421.15</ele>
        <time>2003-06-29T09:04:02Z</time>
      </trkpt>
      <trkpt lat="43.56435" lon="5.87522">
        <ele>419.67</ele>
        <time>2003-06-29T09:04:07Z</time>
      </trkpt>
      <trkpt lat="43.56416" lon="5.8751">
        <ele>419.47</ele>
        <time>2003-06-29T09:04:12Z</time>
      </trkpt>
      <trkpt lat="43.56397" lon="5.87522">
        <ele>417.62</ele>
        <time>2003-06-29T09:04:18Z</time>
      </trkpt>
      <trkpt lat="43.56377" lon="5.87518">
        <ele>417.66</ele>
        <time>2003-06-29T09:04:23Z</time>
      </trkpt>
      <trkpt lat="43.56359" lon="5.87507">
        <ele>417.48</ele>
        <time>2003-06-29T09:04:28Z</time>
      </trkpt>
      <trkpt lat="43.56343" lon="5.87496">
        <ele>418.61</ele>
        <time>2003-06-29T09:04:34Z</time>
      </trkpt>
      <trkpt lat="43.5633" lon="5.87478">
        <ele>419.43</ele>
        <time>2003-06-29T09:04:40Z</time>
      </trkpt>
      <trkpt lat="43.56314" lon="5.8746">
        <ele>419.14</ele>
        <time>2003-06-29T09:04:46Z</time>
      </trkpt>
      <trkpt lat="43.56295" lon="5.87448">
        <ele>418.57</ele>
        <time>2003-06-29T09:04:52Z</time>
      </trkpt>
      <trkpt lat="43.5628" lon="5.87433">
        <ele>418.58</ele>
        <time>2003-06-29T09:05:19Z</time>
      </trkpt>
      <trkpt lat="43.56271" lon="5.87409">
        <ele>418.82</ele>
        <time>2003-06-29T09:05:26Z</time>
      </trkpt>
      <trkpt lat="43.56266" lon="5.87381">
        <ele>420.59</ele>
        <time>2003-06-29T09:05:33Z</time>
      </trkpt>
      <trkpt lat="43.56259" lon="5.87357">
        <ele>421.6</ele>
        <time>2003-06-29T09:05:38Z</time>
      </trkpt>
      <trkpt lat="43.56246" lon="5.87337">
        <ele>423.31</ele>
        <time>2003-06-29T09:05:43Z</time>
      </trkpt>
      <trkpt lat="43.56231" lon="5.87319">
        <ele>423.58</ele>
        <time>2003-06-29T09:05:48Z</time>
      </trkpt>
      <trkpt lat="43.56219" lon="5.87295">
        <ele>422.82</ele>
        <time>2003-06-29T09:05:53Z</time>
      </trkpt>
      <trkpt lat="43.56204" lon="5.87279">
        <ele>422.59</ele>
        <time>2003-06-29T09:05:57Z</time>
      </trkpt>
      <trkpt lat="43.56189" lon="5.87262">
        <ele>422.49</ele>
        <time>2003-06-29T09:06:01Z</time>
      </trkpt>
      <trkpt lat="43.56178" lon="5.8724">
        <ele>421.81</ele>
        <time>2003-06-29T09:06:05Z</time>
      </trkpt>
      <trkpt lat="43.5618" lon="5.8721">
        <ele>420.91</ele>
        <time>2003-06-29T09:06:10Z</time>
      </trkpt>
      <trkpt lat="43.56181" lon="5.87182">
        <ele>420.59</ele>
        <time>2003-06-29T09:06:15Z</time>
      </trkpt>
      <trkpt lat="43.56164" lon="5.87168">
        <ele>420</ele>
        <time>2003-06-29T09:06:22Z</time>
      </trkpt>
      <trkpt lat="43.56145" lon="5.87159">
        <ele>418.18</ele>
        <time>2003-06-29T09:06:26Z</time>
      </trkpt>
      <trkpt lat="43.5613" lon="5.87144">
        <ele>416.36</ele>
        <time>2003-06-29T09:06:30Z</time>
      </trkpt>
      <trkpt lat="43.56111" lon="5.87128">
        <ele>415.14</ele>
        <time>2003-06-29T09:06:35Z</time>
      </trkpt>
      <trkpt lat="43.56097" lon="5.87106">
        <ele>413.37</ele>
        <time>2003-06-29T09:06:41Z</time>
      </trkpt>
      <trkpt lat="43.56078" lon="5.87092">
        <ele>410.95</ele>
        <time>2003-06-29T09:06:45Z</time>
      </trkpt>
      <trkpt lat="43.56067" lon="5.87113">
        <ele>406.67</ele>
        <time>2003-06-29T09:06:55Z</time>
      </trkpt>
      <trkpt lat="43.56068" lon="5.87139">
        <ele>404.71</ele>
        <time>2003-06-29T09:08:13Z</time>
      </trkpt>
      <trkpt lat="43.56064" lon="5.87167">
        <ele>402.63</ele>
        <time>2003-06-29T09:08:18Z</time>
      </trkpt>
      <trkpt lat="43.56059" lon="5.87193">
        <ele>399.21</ele>
        <time>2003-06-29T09:08:22Z</time>
      </trkpt>
      <trkpt lat="43.56041" lon="5.87216">
        <ele>396</ele>
        <time>2003-06-29T09:08:26Z</time>
      </trkpt>
      <trkpt lat="43.56027" lon="5.87233">
        <ele>393.67</ele>
        <time>2003-06-29T09:08:29Z</time>
      </trkpt>
      <trkpt lat="43.56012" lon="5.8725">
        <ele>390.9</ele>
        <time>2003-06-29T09:08:33Z</time>
      </trkpt>
      <trkpt lat="43.55995" lon="5.87262">
        <ele>388.84</ele>
        <time>2003-06-29T09:08:38Z</time>
      </trkpt>
      <trkpt lat="43.5598" lon="5.87276">
        <ele>387.18</ele>
        <time>2003-06-29T09:08:42Z</time>
      </trkpt>
      <trkpt lat="43.55964" lon="5.87296">
        <ele>383.95</ele>
        <time>2003-06-29T09:08:48Z</time>
      </trkpt>
      <trkpt lat="43.5595" lon="5.87316">
        <ele>381.63</ele>
        <time>2003-06-29T09:08:53Z</time>
      </trkpt>
      <trkpt lat="43.55931" lon="5.87327">
        <ele>379.78</ele>
        <time>2003-06-29T09:08:57Z</time>
      </trkpt>
      <trkpt lat="43.55908" lon="5.87338">
        <ele>377.8</ele>
        <time>2003-06-29T09:09:01Z</time>
      </trkpt>
      <trkpt lat="43.5589" lon="5.87345">
        <ele>376.6</ele>
        <time>2003-06-29T09:09:04Z</time>
      </trkpt>
      <trkpt lat="43.55872" lon="5.87364">
        <ele>374.88</ele>
        <time>2003-06-29T09:09:08Z</time>
      </trkpt>
      <trkpt lat="43.55856" lon="5.87385">
        <ele>373.93</ele>
        <time>2003-06-29T09:09:12Z</time>
      </trkpt>
      <trkpt lat="43.55845" lon="5.87405">
        <ele>372.59</ele>
        <time>2003-06-29T09:09:15Z</time>
      </trkpt>
      <trkpt lat="43.55826" lon="5.87425">
        <ele>371.51</ele>
        <time>2003-06-29T09:09:19Z</time>
      </trkpt>
      <trkpt lat="43.55808" lon="5.87433">
        <ele>370.38</ele>
        <time>2003-06-29T09:09:22Z</time>
      </trkpt>
      <trkpt lat="43.55789" lon="5.87439">
        <ele>368.95</ele>
        <time>2003-06-29T09:09:25Z</time>
      </trkpt>
      <trkpt lat="43.55771" lon="5.87448">
        <ele>367.71</ele>
        <time>2003-06-29T09:09:28Z</time>
      </trkpt>
      <trkpt lat="43.55748" lon="5.87446">
        <ele>367.06</ele>
        <time>2003-06-29T09:09:32Z</time>
      </trkpt>
      <trkpt lat="43.5573" lon="5.8743">
        <ele>365.38</ele>
        <time>2003-06-29T09:09:35Z</time>
      </trkpt>
      <trkpt lat="43.55708" lon="5.8743">
        <ele>364.14</ele>
        <time>2003-06-29T09:09:39Z</time>
      </trkpt>
      <trkpt lat="43.55693" lon="5.87444">
        <ele>362.74</ele>
        <time>2003-06-29T09:09:42Z</time>
      </trkpt>
      <trkpt lat="43.55677" lon="5.87458">
        <ele>361.69</ele>
        <time>2003-06-29T09:09:45Z</time>
      </trkpt>
      <trkpt lat="43.55661" lon="5.87473">
        <ele>360.64</ele>
        <time>2003-06-29T09:09:49Z</time>
      </trkpt>
      <trkpt lat="43.55656" lon="5.87502">
        <ele>358.9</ele>
        <time>2003-06-29T09:09:54Z</time>
      </trkpt>
      <trkpt lat="43.55653" lon="5.87531">
        <ele>356.71</ele>
        <time>2003-06-29T09:09:58Z</time>
      </trkpt>
      <trkpt lat="43.55642" lon="5.87553">
        <ele>355.76</ele>
        <time>2003-06-29T09:10:02Z</time>
      </trkpt>
      <trkpt lat="43.5563" lon="5.87578">
        <ele>354.32</ele>
        <time>2003-06-29T09:10:07Z</time>
      </trkpt>
      <trkpt lat="43.55614" lon="5.87589">
        <ele>353.82</ele>
        <time>2003-06-29T09:10:53Z</time>
      </trkpt>
      <trkpt lat="43.55597" lon="5.87573">
        <ele>354.54</ele>
        <time>2003-06-29T09:10:59Z</time>
      </trkpt>
      <trkpt lat="43.55597" lon="5.87546">
        <ele>355.04</ele>
        <time>2003-06-29T09:11:05Z</time>
      </trkpt>
      <trkpt lat="43.55591" lon="5.87522">
        <ele>356.02</ele>
        <time>2003-06-29T09:11:12Z</time>
      </trkpt>
      <trkpt lat="43.5558" lon="5.87499">
        <ele>358.69</ele>
        <time>2003-06-29T09:11:20Z</time>
      </trkpt>
      <trkpt lat="43.55564" lon="5.87484">
        <ele>360.84</ele>
        <time>2003-06-29T09:11:29Z</time>
      </trkpt>
      <trkpt lat="43.55547" lon="5.87493">
        <ele>363.59</ele>
        <time>2003-06-29T09:11:40Z</time>
      </trkpt>
      <trkpt lat="43.55529" lon="5.875">
        <ele>366.78</ele>
        <time>2003-06-29T09:11:51Z</time>
      </trkpt>
      <trkpt lat="43.55511" lon="5.87501">
        <ele>369.69</ele>
        <time>2003-06-29T09:12:02Z</time>
      </trkpt>
      <trkpt lat="43.55493" lon="5.87492">
        <ele>372.99</ele>
        <time>2003-06-29T09:12:13Z</time>
      </trkpt>
      <trkpt lat="43.55477" lon="5.87477">
        <ele>371.93</ele>
        <time>2003-06-29T09:12:22Z</time>
      </trkpt>
      <trkpt lat="43.55458" lon="5.8747">
        <ele>371.9</ele>
        <time>2003-06-29T09:12:30Z</time>
      </trkpt>
      <trkpt lat="43.55441" lon="5.87456">
        <ele>373.6</ele>
        <time>2003-06-29T09:12:39Z</time>
      </trkpt>
      <trkpt lat="43.55425" lon="5.87443">
        <ele>376.16</ele>
        <time>2003-06-29T09:12:47Z</time>
      </trkpt>
      <trkpt lat="43.55406" lon="5.87445">
        <ele>375.17</ele>
        <time>2003-06-29T09:12:55Z</time>
      </trkpt>
      <trkpt lat="43.55387" lon="5.87438">
        <ele>375.13</ele>
        <time>2003-06-29T09:13:03Z</time>
      </trkpt>
      <trkpt lat="43.55368" lon="5.8743">
        <ele>374.47</ele>
        <time>2003-06-29T09:13:10Z</time>
      </trkpt>
      <trkpt lat="43.5535" lon="5.87423">
        <ele>373.69</ele>
        <time>2003-06-29T09:13:17Z</time>
      </trkpt>
      <trkpt lat="43.55331" lon="5.87417">
        <ele>373.06</ele>
        <time>2003-06-29T09:13:24Z</time>
      </trkpt>
      <trkpt lat="43.55313" lon="5.87406">
        <ele>376.38</ele>
        <time>2003-06-29T09:13:31Z</time>
      </trkpt>
      <trkpt lat="43.55298" lon="5.87391">
        <ele>378.27</ele>
        <time>2003-06-29T09:13:38Z</time>
      </trkpt>
      <trkpt lat="43.55283" lon="5.87376">
        <ele>379.01</ele>
        <time>2003-06-29T09:13:45Z</time>
      </trkpt>
      <trkpt lat="43.55267" lon="5.8739">
        <ele>378.57</ele>
        <time>2003-06-29T09:13:54Z</time>
      </trkpt>
      <trkpt lat="43.55251" lon="5.87402">
        <ele>377.78</ele>
        <time>2003-06-29T09:14:05Z</time>
      </trkpt>
      <trkpt lat="43.55235" lon="5.87418">
        <ele>378.23</ele>
        <time>2003-06-29T09:14:17Z</time>
      </trkpt>
      <trkpt lat="43.55219" lon="5.87431">
        <ele>378.27</ele>
        <time>2003-06-29T09:14:26Z</time>
      </trkpt>
      <trkpt lat="43.55203" lon="5.87445">
        <ele>380.09</ele>
        <time>2003-06-29T09:14:35Z</time>
      </trkpt>
      <trkpt lat="43.5519" lon="5.87462">
        <ele>381.28</ele>
        <time>2003-06-29T09:14:44Z</time>
      </trkpt>
      <trkpt lat="43.55175" lon="5.87479">
        <ele>382.04</ele>
        <time>2003-06-29T09:14:55Z</time>
      </trkpt>
      <trkpt lat="43.55161" lon="5.87497">
        <ele>383.72</ele>
        <time>2003-06-29T09:15:05Z</time>
      </trkpt>
      <trkpt lat="43.55147" lon="5.87514">
        <ele>385.43</ele>
        <time>2003-06-29T09:15:14Z</time>
      </trkpt>
      <trkpt lat="43.55132" lon="5.87532">
        <ele>386.12</ele>
        <time>2003-06-29T09:15:24Z</time>
      </trkpt>
      <trkpt lat="43.55117" lon="5.87547">
        <ele>389.12</ele>
        <time>2003-06-29T09:15:31Z</time>
      </trkpt>
      <trkpt lat="43.55102" lon="5.87564">
        <ele>390.96</ele>
        <time>2003-06-29T09:15:40Z</time>
      </trkpt>
      <trkpt lat="43.55086" lon="5.87582">
        <ele>391.97</ele>
        <time>2003-06-29T09:15:50Z</time>
      </trkpt>
      <trkpt lat="43.55071" lon="5.87599">
        <ele>392.08</ele>
        <time>2003-06-29T09:15:59Z</time>
      </trkpt>
      <trkpt lat="43.55055" lon="5.87612">
        <ele>392.99</ele>
        <time>2003-06-29T09:16:07Z</time>
      </trkpt>
      <trkpt lat="43.55041" lon="5.87627">
        <ele>391.72</ele>
        <time>2003-06-29T09:16:16Z</time>
      </trkpt>
      <trkpt lat="43.55022" lon="5.87637">
        <ele>391.13</ele>
        <time>2003-06-29T09:16:24Z</time>
      </trkpt>
      <trkpt lat="43.55005" lon="5.87648">
        <ele>389.9</ele>
        <time>2003-06-29T09:16:31Z</time>
      </trkpt>
      <trkpt lat="43.54985" lon="5.87654">
        <ele>389.69</ele>
        <time>2003-06-29T09:16:37Z</time>
      </trkpt>
      <trkpt lat="43.54966" lon="5.8766">
        <ele>388.78</ele>
        <time>2003-06-29T09:16:42Z</time>
      </trkpt>
      <trkpt lat="43.54948" lon="5.87667">
        <ele>387.06</ele>
        <time>2003-06-29T09:16:47Z</time>
      </trkpt>
      <trkpt lat="43.54929" lon="5.87675">
        <ele>385.8</ele>
        <time>2003-06-29T09:16:52Z</time>
      </trkpt>
      <trkpt lat="43.5491" lon="5.87676">
        <ele>384.92</ele>
        <time>2003-06-29T09:16:57Z</time>
      </trkpt>
      <trkpt lat="43.5489" lon="5.87679">
        <ele>384.15</ele>
        <time>2003-06-29T09:17:02Z</time>
      </trkpt>
      <trkpt lat="43.54869" lon="5.87686">
        <ele>383.28</ele>
        <time>2003-06-29T09:17:07Z</time>
      </trkpt>
      <trkpt lat="43.54848" lon="5.87679">
        <ele>383.47</ele>
        <time>2003-06-29T09:17:12Z</time>
      </trkpt>
      <trkpt lat="43.5483" lon="5.8767">
        <ele>384.18</ele>
        <time>2003-06-29T09:17:17Z</time>
      </trkpt>
      <trkpt lat="43.54813" lon="5.87662">
        <ele>384.98</ele>
        <time>2003-06-29T09:17:22Z</time>
      </trkpt>
      <trkpt lat="43.54794" lon="5.87657">
        <ele>387.65</ele>
        <time>2003-06-29T09:17:30Z</time>
      </trkpt>
      <trkpt lat="43.54776" lon="5.8767">
        <ele>387.29</ele>
        <time>2003-06-29T09:17:37Z</time>
      </trkpt>
      <trkpt lat="43.54758" lon="5.87683">
        <ele>385.8</ele>
        <time>2003-06-29T09:17:44Z</time>
      </trkpt>
      <trkpt lat="43.54741" lon="5.87694">
        <ele>385.58</ele>
        <time>2003-06-29T09:17:53Z</time>
      </trkpt>
      <trkpt lat="43.54731" lon="5.87717">
        <ele>387.16</ele>
        <time>2003-06-29T09:18:20Z</time>
      </trkpt>
      <trkpt lat="43.54723" lon="5.87739">
        <ele>387.75</ele>
        <time>2003-06-29T09:18:28Z</time>
      </trkpt>
      <trkpt lat="43.54716" lon="5.87765">
        <ele>387.88</ele>
        <time>2003-06-29T09:18:36Z</time>
      </trkpt>
      <trkpt lat="43.5471" lon="5.87791">
        <ele>388.79</ele>
        <time>2003-06-29T09:18:44Z</time>
      </trkpt>
      <trkpt lat="43.54701" lon="5.87814">
        <ele>390.42</ele>
        <time>2003-06-29T09:18:52Z</time>
      </trkpt>
      <trkpt lat="43.54689" lon="5.87834">
        <ele>391.82</ele>
        <time>2003-06-29T09:19:01Z</time>
      </trkpt>
      <trkpt lat="43.54675" lon="5.87853">
        <ele>392.84</ele>
        <time>2003-06-29T09:19:10Z</time>
      </trkpt>
      <trkpt lat="43.54664" lon="5.87874">
        <ele>394.25</ele>
        <time>2003-06-29T09:19:19Z</time>
      </trkpt>
      <trkpt lat="43.54649" lon="5.87893">
        <ele>395.87</ele>
        <time>2003-06-29T09:19:27Z</time>
      </trkpt>
      <trkpt lat="43.54638" lon="5.87915">
        <ele>395.62</ele>
        <time>2003-06-29T09:19:34Z</time>
      </trkpt>
      <trkpt lat="43.54621" lon="5.8793">
        <ele>394.12</ele>
        <time>2003-06-29T09:19:40Z</time>
      </trkpt>
      <trkpt lat="43.54604" lon="5.87945">
        <ele>392.42</ele>
        <time>2003-06-29T09:19:45Z</time>
      </trkpt>
      <trkpt lat="43.5459" lon="5.87965">
        <ele>389.51</ele>
        <time>2003-06-29T09:19:51Z</time>
      </trkpt>
      <trkpt lat="43.54573" lon="5.87973">
        <ele>388.32</ele>
        <time>2003-06-29T09:19:59Z</time>
      </trkpt>
      <trkpt lat="43.54557" lon="5.87988">
        <ele>389.25</ele>
        <time>2003-06-29T09:20:33Z</time>
      </trkpt>
      <trkpt lat="43.54539" lon="5.87994">
        <ele>390.03</ele>
        <time>2003-06-29T09:20:41Z</time>
      </trkpt>
      <trkpt lat="43.54531" lon="5.88019">
        <ele>391.83</ele>
        <time>2003-06-29T09:20:49Z</time>
      </trkpt>
      <trkpt lat="43.54519" lon="5.88039">
        <ele>393.62</ele>
        <time>2003-06-29T09:20:57Z</time>
      </trkpt>
      <trkpt lat="43.54505" lon="5.88057">
        <ele>394.75</ele>
        <time>2003-06-29T09:21:04Z</time>
      </trkpt>
      <trkpt lat="43.54494" lon="5.88078">
        <ele>393.72</ele>
        <time>2003-06-29T09:21:10Z</time>
      </trkpt>
      <trkpt lat="43.5448" lon="5.88098">
        <ele>392.01</ele>
        <time>2003-06-29T09:21:16Z</time>
      </trkpt>
      <trkpt lat="43.54466" lon="5.88115">
        <ele>390.58</ele>
        <time>2003-06-29T09:21:21Z</time>
      </trkpt>
      <trkpt lat="43.54453" lon="5.88133">
        <ele>390.11</ele>
        <time>2003-06-29T09:21:26Z</time>
      </trkpt>
      <trkpt lat="43.54448" lon="5.88158">
        <ele>388.53</ele>
        <time>2003-06-29T09:21:31Z</time>
      </trkpt>
      <trkpt lat="43.54439" lon="5.88182">
        <ele>386.67</ele>
        <time>2003-06-29T09:21:36Z</time>
      </trkpt>
      <trkpt lat="43.54418" lon="5.88189">
        <ele>386.26</ele>
        <time>2003-06-29T09:21:41Z</time>
      </trkpt>
      <trkpt lat="43.54403" lon="5.88202">
        <ele>385.98</ele>
        <time>2003-06-29T09:21:45Z</time>
      </trkpt>
      <trkpt lat="43.54387" lon="5.88217">
        <ele>385.4</ele>
        <time>2003-06-29T09:21:49Z</time>
      </trkpt>
      <trkpt lat="43.54371" lon="5.88232">
        <ele>385.27</ele>
        <time>2003-06-29T09:21:53Z</time>
      </trkpt>
      <trkpt lat="43.54353" lon="5.88242">
        <ele>385.36</ele>
        <time>2003-06-29T09:22:02Z</time>
      </trkpt>
      <trkpt lat="43.54336" lon="5.88256">
        <ele>386.5</ele>
        <time>2003-06-29T09:22:09Z</time>
      </trkpt>
      <trkpt lat="43.54319" lon="5.88268">
        <ele>387.42</ele>
        <time>2003-06-29T09:22:15Z</time>
      </trkpt>
      <trkpt lat="43.54301" lon="5.8828">
        <ele>386.6</ele>
        <time>2003-06-29T09:22:21Z</time>
      </trkpt>
      <trkpt lat="43.54284" lon="5.8829">
        <ele>385.55</ele>
        <time>2003-06-29T09:22:26Z</time>
      </trkpt>
      <trkpt lat="43.54266" lon="5.88306">
        <ele>384.36</ele>
        <time>2003-06-29T09:22:31Z</time>
      </trkpt>
      <trkpt lat="43.5425" lon="5.88317">
        <ele>383.32</ele>
        <time>2003-06-29T09:22:35Z</time>
      </trkpt>
      <trkpt lat="43.54233" lon="5.88327">
        <ele>382.42</ele>
        <time>2003-06-29T09:22:39Z</time>
      </trkpt>
      <trkpt lat="43.54213" lon="5.88332">
        <ele>381.73</ele>
        <time>2003-06-29T09:22:43Z</time>
      </trkpt>
      <trkpt lat="43.54192" lon="5.88337">
        <ele>379.3</ele>
        <time>2003-06-29T09:22:47Z</time>
      </trkpt>
      <trkpt lat="43.54173" lon="5.88337">
        <ele>378.07</ele>
        <time>2003-06-29T09:22:50Z</time>
      </trkpt>
      <trkpt lat="43.54152" lon="5.88351">
        <ele>376.47</ele>
        <time>2003-06-29T09:22:54Z</time>
      </trkpt>
      <trkpt lat="43.54133" lon="5.88367">
        <ele>375.32</ele>
        <time>2003-06-29T09:22:58Z</time>
      </trkpt>
      <trkpt lat="43.54113" lon="5.88382">
        <ele>374.74</ele>
        <time>2003-06-29T09:23:02Z</time>
      </trkpt>
      <trkpt lat="43.54099" lon="5.88398">
        <ele>373.86</ele>
        <time>2003-06-29T09:23:05Z</time>
      </trkpt>
      <trkpt lat="43.54081" lon="5.88415">
        <ele>372.96</ele>
        <time>2003-06-29T09:23:09Z</time>
      </trkpt>
      <trkpt lat="43.54062" lon="5.88425">
        <ele>372.4</ele>
        <time>2003-06-29T09:23:13Z</time>
      </trkpt>
      <trkpt lat="43.54045" lon="5.88433">
        <ele>372.09</ele>
        <time>2003-06-29T09:23:18Z</time>
      </trkpt>
      <trkpt lat="43.54028" lon="5.8844">
        <ele>371.42</ele>
        <time>2003-06-29T09:23:23Z</time>
      </trkpt>
      <trkpt lat="43.54008" lon="5.88452">
        <ele>370.91</ele>
        <time>2003-06-29T09:23:29Z</time>
      </trkpt>
      <trkpt lat="43.5399" lon="5.88466">
        <ele>374.09</ele>
        <time>2003-06-29T09:24:17Z</time>
      </trkpt>
      <trkpt lat="43.53972" lon="5.88466">
        <ele>374.69</ele>
        <time>2003-06-29T09:24:25Z</time>
      </trkpt>
      <trkpt lat="43.53953" lon="5.8846">
        <ele>374.91</ele>
        <time>2003-06-29T09:24:31Z</time>
      </trkpt>
      <trkpt lat="43.53935" lon="5.88446">
        <ele>374.26</ele>
        <time>2003-06-29T09:24:36Z</time>
      </trkpt>
      <trkpt lat="43.53914" lon="5.88444">
        <ele>373.89</ele>
        <time>2003-06-29T09:24:41Z</time>
      </trkpt>
      <trkpt lat="43.53894" lon="5.88441">
        <ele>372.47</ele>
        <time>2003-06-29T09:24:46Z</time>
      </trkpt>
      <trkpt lat="43.53876" lon="5.88438">
        <ele>370.25</ele>
        <time>2003-06-29T09:24:50Z</time>
      </trkpt>
      <trkpt lat="43.53854" lon="5.88446">
        <ele>368.01</ele>
        <time>2003-06-29T09:24:54Z</time>
      </trkpt>
      <trkpt lat="43.53832" lon="5.88446">
        <ele>365.34</ele>
        <time>2003-06-29T09:24:58Z</time>
      </trkpt>
      <trkpt lat="43.53814" lon="5.88437">
        <ele>364.42</ele>
        <time>2003-06-29T09:25:02Z</time>
      </trkpt>
      <trkpt lat="43.53798" lon="5.88426">
        <ele>362.69</ele>
        <time>2003-06-29T09:25:06Z</time>
      </trkpt>
      <trkpt lat="43.5378" lon="5.88433">
        <ele>359.54</ele>
        <time>2003-06-29T09:25:10Z</time>
      </trkpt>
      <trkpt lat="43.53763" lon="5.88443">
        <ele>357.69</ele>
        <time>2003-06-29T09:25:14Z</time>
      </trkpt>
      <trkpt lat="43.53764" lon="5.88418">
        <ele>357.52</ele>
        <time>2003-06-29T09:25:31Z</time>
      </trkpt>
      <trkpt lat="43.53772" lon="5.88395">
        <ele>358.93</ele>
        <time>2003-06-29T09:25:42Z</time>
      </trkpt>
      <trkpt lat="43.53781" lon="5.8837">
        <ele>360.52</ele>
        <time>2003-06-29T09:25:51Z</time>
      </trkpt>
      <trkpt lat="43.5379" lon="5.88348">
        <ele>362.96</ele>
        <time>2003-06-29T09:25:59Z</time>
      </trkpt>
      <trkpt lat="43.53799" lon="5.88325">
        <ele>366.08</ele>
        <time>2003-06-29T09:26:08Z</time>
      </trkpt>
      <trkpt lat="43.53804" lon="5.88301">
        <ele>368.81</ele>
        <time>2003-06-29T09:26:17Z</time>
      </trkpt>
      <trkpt lat="43.53805" lon="5.88275">
        <ele>371.39</ele>
        <time>2003-06-29T09:26:27Z</time>
      </trkpt>
      <trkpt lat="43.53811" lon="5.88252">
        <ele>373.1</ele>
        <time>2003-06-29T09:26:37Z</time>
      </trkpt>
      <trkpt lat="43.53813" lon="5.88225">
        <ele>376.12</ele>
        <time>2003-06-29T09:26:49Z</time>
      </trkpt>
      <trkpt lat="43.53815" lon="5.882">
        <ele>378.12</ele>
        <time>2003-06-29T09:27:00Z</time>
      </trkpt>
      <trkpt lat="43.53817" lon="5.88173">
        <ele>377.89</ele>
        <time>2003-06-29T09:27:11Z</time>
      </trkpt>
      <trkpt lat="43.53814" lon="5.88149">
        <ele>378.08</ele>
        <time>2003-06-29T09:27:22Z</time>
      </trkpt>
      <trkpt lat="43.53809" lon="5.88124">
        <ele>378.62</ele>
        <time>2003-06-29T09:27:33Z</time>
      </trkpt>
      <trkpt lat="43.53806" lon="5.88098">
        <ele>379.26</ele>
        <time>2003-06-29T09:27:45Z</time>
      </trkpt>
      <trkpt lat="43.53803" lon="5.88071">
        <ele>379.35</ele>
        <time>2003-06-29T09:27:57Z</time>
      </trkpt>
      <trkpt lat="43.53804" lon="5.88045">
        <ele>380.56</ele>
        <time>2003-06-29T09:28:09Z</time>
      </trkpt>
      <trkpt lat="43.5381" lon="5.88019">
        <ele>383.22</ele>
        <time>2003-06-29T09:28:21Z</time>
      </trkpt>
      <trkpt lat="43.53813" lon="5.87994">
        <ele>384.92</ele>
        <time>2003-06-29T09:28:32Z</time>
      </trkpt>
      <trkpt lat="43.53816" lon="5.87969">
        <ele>387.19</ele>
        <time>2003-06-29T09:28:44Z</time>
      </trkpt>
      <trkpt lat="43.53811" lon="5.87944">
        <ele>389.41</ele>
        <time>2003-06-29T09:28:55Z</time>
      </trkpt>
      <trkpt lat="43.53803" lon="5.87921">
        <ele>392.32</ele>
        <time>2003-06-29T09:29:07Z</time>
      </trkpt>
      <trkpt lat="43.53804" lon="5.87895">
        <ele>395.02</ele>
        <time>2003-06-29T09:29:20Z</time>
      </trkpt>
      <trkpt lat="43.5381" lon="5.8787">
        <ele>395.67</ele>
        <time>2003-06-29T09:29:32Z</time>
      </trkpt>
      <trkpt lat="43.53814" lon="5.87846">
        <ele>396.66</ele>
        <time>2003-06-29T09:29:44Z</time>
      </trkpt>
      <trkpt lat="43.53812" lon="5.87821">
        <ele>397.82</ele>
        <time>2003-06-29T09:29:55Z</time>
      </trkpt>
      <trkpt lat="43.53812" lon="5.87795">
        <ele>400.46</ele>
        <time>2003-06-29T09:30:07Z</time>
      </trkpt>
      <trkpt lat="43.53811" lon="5.87768">
        <ele>402.71</ele>
        <time>2003-06-29T09:30:19Z</time>
      </trkpt>
      <trkpt lat="43.53812" lon="5.87741">
        <ele>406.17</ele>
        <time>2003-06-29T09:30:33Z</time>
      </trkpt>
      <trkpt lat="43.53812" lon="5.87715">
        <ele>410.51</ele>
        <time>2003-06-29T09:30:45Z</time>
      </trkpt>
      <trkpt lat="43.53818" lon="5.87691">
        <ele>411.65</ele>
        <time>2003-06-29T09:30:57Z</time>
      </trkpt>
      <trkpt lat="43.53821" lon="5.87664">
        <ele>413.4</ele>
        <time>2003-06-29T09:31:08Z</time>
      </trkpt>
      <trkpt lat="43.53827" lon="5.8764">
        <ele>416.62</ele>
        <time>2003-06-29T09:31:21Z</time>
      </trkpt>
      <trkpt lat="43.53839" lon="5.87619">
        <ele>417.93</ele>
        <time>2003-06-29T09:31:33Z</time>
      </trkpt>
      <trkpt lat="43.53848" lon="5.87598">
        <ele>418.37</ele>
        <time>2003-06-29T09:31:44Z</time>
      </trkpt>
      <trkpt lat="43.53862" lon="5.87582">
        <ele>421.87</ele>
        <time>2003-06-29T09:31:56Z</time>
      </trkpt>
      <trkpt lat="43.53878" lon="5.8757">
        <ele>423.08</ele>
        <time>2003-06-29T09:32:08Z</time>
      </trkpt>
      <trkpt lat="43.53894" lon="5.87556">
        <ele>425.71</ele>
        <time>2003-06-29T09:32:19Z</time>
      </trkpt>
      <trkpt lat="43.5391" lon="5.87541">
        <ele>427.42</ele>
        <time>2003-06-29T09:32:31Z</time>
      </trkpt>
      <trkpt lat="43.53902" lon="5.87519">
        <ele>428.98</ele>
        <time>2003-06-29T09:33:26Z</time>
      </trkpt>
      <trkpt lat="43.53883" lon="5.87517">
        <ele>429.57</ele>
        <time>2003-06-29T09:33:59Z</time>
      </trkpt>
      <trkpt lat="43.53876" lon="5.87493">
        <ele>431.6</ele>
        <time>2003-06-29T09:35:40Z</time>
      </trkpt>
      <trkpt lat="43.53888" lon="5.87473">
        <ele>433.78</ele>
        <time>2003-06-29T09:35:52Z</time>
      </trkpt>
      <trkpt lat="43.53905" lon="5.87466">
        <ele>435.61</ele>
        <time>2003-06-29T09:36:02Z</time>
      </trkpt>
      <trkpt lat="43.53922" lon="5.87451">
        <ele>436.47</ele>
        <time>2003-06-29T09:36:13Z</time>
      </trkpt>
      <trkpt lat="43.53934" lon="5.87432">
        <ele>437.35</ele>
        <time>2003-06-29T09:36:23Z</time>
      </trkpt>
      <trkpt lat="43.53946" lon="5.87412">
        <ele>439.55</ele>
        <time>2003-06-29T09:36:33Z</time>
      </trkpt>
      <trkpt lat="43.53956" lon="5.87391">
        <ele>442.01</ele>
        <time>2003-06-29T09:36:43Z</time>
      </trkpt>
      <trkpt lat="43.53943" lon="5.87374">
        <ele>444.93</ele>
        <time>2003-06-29T09:37:03Z</time>
      </trkpt>
      <trkpt lat="43.53924" lon="5.87372">
        <ele>444.89</ele>
        <time>2003-06-29T09:37:15Z</time>
      </trkpt>
      <trkpt lat="43.53905" lon="5.87372">
        <ele>444.97</ele>
        <time>2003-06-29T09:37:24Z</time>
      </trkpt>
      <trkpt lat="43.53886" lon="5.87373">
        <ele>446.02</ele>
        <time>2003-06-29T09:37:32Z</time>
      </trkpt>
      <trkpt lat="43.53867" lon="5.87371">
        <ele>446.81</ele>
        <time>2003-06-29T09:37:40Z</time>
      </trkpt>
      <trkpt lat="43.53847" lon="5.87366">
        <ele>446.99</ele>
        <time>2003-06-29T09:37:49Z</time>
      </trkpt>
      <trkpt lat="43.53828" lon="5.8736">
        <ele>446.84</ele>
        <time>2003-06-29T09:37:57Z</time>
      </trkpt>
      <trkpt lat="43.53812" lon="5.8735">
        <ele>446.99</ele>
        <time>2003-06-29T09:38:05Z</time>
      </trkpt>
      <trkpt lat="43.53797" lon="5.87334">
        <ele>448.4</ele>
        <time>2003-06-29T09:38:14Z</time>
      </trkpt>
      <trkpt lat="43.53783" lon="5.87318">
        <ele>450.15</ele>
        <time>2003-06-29T09:38:21Z</time>
      </trkpt>
      <trkpt lat="43.53767" lon="5.87303">
        <ele>451.6</ele>
        <time>2003-06-29T09:38:29Z</time>
      </trkpt>
      <trkpt lat="43.5375" lon="5.87292">
        <ele>451.62</ele>
        <time>2003-06-29T09:38:37Z</time>
      </trkpt>
      <trkpt lat="43.53732" lon="5.87282">
        <ele>454.97</ele>
        <time>2003-06-29T09:38:45Z</time>
      </trkpt>
      <trkpt lat="43.53714" lon="5.87276">
        <ele>455.44</ele>
        <time>2003-06-29T09:38:53Z</time>
      </trkpt>
      <trkpt lat="43.53695" lon="5.87276">
        <ele>454.57</ele>
        <time>2003-06-29T09:39:02Z</time>
      </trkpt>
      <trkpt lat="43.53675" lon="5.8728">
        <ele>456.24</ele>
        <time>2003-06-29T09:39:11Z</time>
      </trkpt>
      <trkpt lat="43.53655" lon="5.87288">
        <ele>457.94</ele>
        <time>2003-06-29T09:39:20Z</time>
      </trkpt>
      <trkpt lat="43.53637" lon="5.87293">
        <ele>459.35</ele>
        <time>2003-06-29T09:39:29Z</time>
      </trkpt>
      <trkpt lat="43.53617" lon="5.87295">
        <ele>460.22</ele>
        <time>2003-06-29T09:39:38Z</time>
      </trkpt>
      <trkpt lat="43.53598" lon="5.87292">
        <ele>461.2</ele>
        <time>2003-06-29T09:39:46Z</time>
      </trkpt>
      <trkpt lat="43.53579" lon="5.87288">
        <ele>461.21</ele>
        <time>2003-06-29T09:39:53Z</time>
      </trkpt>
      <trkpt lat="43.53559" lon="5.87287">
        <ele>460.76</ele>
        <time>2003-06-29T09:40:01Z</time>
      </trkpt>
      <trkpt lat="43.5354" lon="5.87281">
        <ele>461.58</ele>
        <time>2003-06-29T09:40:10Z</time>
      </trkpt>
      <trkpt lat="43.53526" lon="5.87264">
        <ele>461.77</ele>
        <time>2003-06-29T09:40:17Z</time>
      </trkpt>
      <trkpt lat="43.53525" lon="5.87237">
        <ele>461.21</ele>
        <time>2003-06-29T09:40:23Z</time>
      </trkpt>
      <trkpt lat="43.53523" lon="5.8721">
        <ele>460.68</ele>
        <time>2003-06-29T09:40:28Z</time>
      </trkpt>
      <trkpt lat="43.53517" lon="5.87182">
        <ele>459</ele>
        <time>2003-06-29T09:40:33Z</time>
      </trkpt>
      <trkpt lat="43.5351" lon="5.87159">
        <ele>458.3</ele>
        <time>2003-06-29T09:40:37Z</time>
      </trkpt>
      <trkpt lat="43.53497" lon="5.87135">
        <ele>457.53</ele>
        <time>2003-06-29T09:40:42Z</time>
      </trkpt>
      <trkpt lat="43.53478" lon="5.87133">
        <ele>456.5</ele>
        <time>2003-06-29T09:40:46Z</time>
      </trkpt>
      <trkpt lat="43.53456" lon="5.87127">
        <ele>454.17</ele>
        <time>2003-06-29T09:40:50Z</time>
      </trkpt>
      <trkpt lat="43.53439" lon="5.87116">
        <ele>452.39</ele>
        <time>2003-06-29T09:40:53Z</time>
      </trkpt>
      <trkpt lat="43.5342" lon="5.87111">
        <ele>451.11</ele>
        <time>2003-06-29T09:40:56Z</time>
      </trkpt>
      <trkpt lat="43.53401" lon="5.87112">
        <ele>449.7</ele>
        <time>2003-06-29T09:40:59Z</time>
      </trkpt>
      <trkpt lat="43.53382" lon="5.87116">
        <ele>448.95</ele>
        <time>2003-06-29T09:41:02Z</time>
      </trkpt>
      <trkpt lat="43.53363" lon="5.87123">
        <ele>447.83</ele>
        <time>2003-06-29T09:41:05Z</time>
      </trkpt>
      <trkpt lat="43.53345" lon="5.87129">
        <ele>447.22</ele>
        <time>2003-06-29T09:41:08Z</time>
      </trkpt>
      <trkpt lat="43.53327" lon="5.87133">
        <ele>446.79</ele>
        <time>2003-06-29T09:41:11Z</time>
      </trkpt>
      <trkpt lat="43.53303" lon="5.87138">
        <ele>446.08</ele>
        <time>2003-06-29T09:41:15Z</time>
      </trkpt>
      <trkpt lat="43.53282" lon="5.87145">
        <ele>444.78</ele>
        <time>2003-06-29T09:41:19Z</time>
      </trkpt>
      <trkpt lat="43.53259" lon="5.87155">
        <ele>443.35</ele>
        <time>2003-06-29T09:41:23Z</time>
      </trkpt>
      <trkpt lat="43.53243" lon="5.87169">
        <ele>442.62</ele>
        <time>2003-06-29T09:41:26Z</time>
      </trkpt>
      <trkpt lat="43.53228" lon="5.87182">
        <ele>442.19</ele>
        <time>2003-06-29T09:41:29Z</time>
      </trkpt>
      <trkpt lat="43.53213" lon="5.87197">
        <ele>441.89</ele>
        <time>2003-06-29T09:41:32Z</time>
      </trkpt>
      <trkpt lat="43.53199" lon="5.87213">
        <ele>441.5</ele>
        <time>2003-06-29T09:41:35Z</time>
      </trkpt>
      <trkpt lat="43.53183" lon="5.87227">
        <ele>441.26</ele>
        <time>2003-06-29T09:41:38Z</time>
      </trkpt>
      <trkpt lat="43.53169" lon="5.87243">
        <ele>440.81</ele>
        <time>2003-06-29T09:41:41Z</time>
      </trkpt>
      <trkpt lat="43.53152" lon="5.87261">
        <ele>440.67</ele>
        <time>2003-06-29T09:41:45Z</time>
      </trkpt>
      <trkpt lat="43.53137" lon="5.87277">
        <ele>440.87</ele>
        <time>2003-06-29T09:42:03Z</time>
      </trkpt>
      <trkpt lat="43.5312" lon="5.87288">
        <ele>441.44</ele>
        <time>2003-06-29T09:42:14Z</time>
      </trkpt>
      <trkpt lat="43.53109" lon="5.87268">
        <ele>443.04</ele>
        <time>2003-06-29T09:42:31Z</time>
      </trkpt>
      <trkpt lat="43.53105" lon="5.87243">
        <ele>444.54</ele>
        <time>2003-06-29T09:42:39Z</time>
      </trkpt>
      <trkpt lat="43.53115" lon="5.87222">
        <ele>443.4</ele>
        <time>2003-06-29T09:42:47Z</time>
      </trkpt>
      <trkpt lat="43.53108" lon="5.87199">
        <ele>442.68</ele>
        <time>2003-06-29T09:42:54Z</time>
      </trkpt>
      <trkpt lat="43.53118" lon="5.87174">
        <ele>442.21</ele>
        <time>2003-06-29T09:43:01Z</time>
      </trkpt>
      <trkpt lat="43.53115" lon="5.87149">
        <ele>441.31</ele>
        <time>2003-06-29T09:43:08Z</time>
      </trkpt>
      <trkpt lat="43.53114" lon="5.87123">
        <ele>439.49</ele>
        <time>2003-06-29T09:43:15Z</time>
      </trkpt>
      <trkpt lat="43.53115" lon="5.87097">
        <ele>439.66</ele>
        <time>2003-06-29T09:43:21Z</time>
      </trkpt>
      <trkpt lat="43.53116" lon="5.87071">
        <ele>439.83</ele>
        <time>2003-06-29T09:43:27Z</time>
      </trkpt>
      <trkpt lat="43.53128" lon="5.87053">
        <ele>440.25</ele>
        <time>2003-06-29T09:43:36Z</time>
      </trkpt>
      <trkpt lat="43.53146" lon="5.87049">
        <ele>439.49</ele>
        <time>2003-06-29T09:43:52Z</time>
      </trkpt>
      <trkpt lat="43.53164" lon="5.87036">
        <ele>439.44</ele>
        <time>2003-06-29T09:44:09Z</time>
      </trkpt>
      <trkpt lat="43.53172" lon="5.8701">
        <ele>436.64</ele>
        <time>2003-06-29T09:44:14Z</time>
      </trkpt>
      <trkpt lat="43.5318" lon="5.86986">
        <ele>432.44</ele>
        <time>2003-06-29T09:44:20Z</time>
      </trkpt>
      <trkpt lat="43.53181" lon="5.8696">
        <ele>427.36</ele>
        <time>2003-06-29T09:44:28Z</time>
      </trkpt>
      <trkpt lat="43.53167" lon="5.86941">
        <ele>420.65</ele>
        <time>2003-06-29T09:44:44Z</time>
      </trkpt>
      <trkpt lat="43.53171" lon="5.86916">
        <ele>419.32</ele>
        <time>2003-06-29T09:44:52Z</time>
      </trkpt>
      <trkpt lat="43.53173" lon="5.86891">
        <ele>418.38</ele>
        <time>2003-06-29T09:44:59Z</time>
      </trkpt>
      <trkpt lat="43.53178" lon="5.86863">
        <ele>417.77</ele>
        <time>2003-06-29T09:45:06Z</time>
      </trkpt>
      <trkpt lat="43.53181" lon="5.86836">
        <ele>415.46</ele>
        <time>2003-06-29T09:45:12Z</time>
      </trkpt>
      <trkpt lat="43.53177" lon="5.86809">
        <ele>415.72</ele>
        <time>2003-06-29T09:45:18Z</time>
      </trkpt>
      <trkpt lat="43.53168" lon="5.86783">
        <ele>415.48</ele>
        <time>2003-06-29T09:45:26Z</time>
      </trkpt>
      <trkpt lat="43.53151" lon="5.86769">
        <ele>414.51</ele>
        <time>2003-06-29T09:45:32Z</time>
      </trkpt>
      <trkpt lat="43.53133" lon="5.8676">
        <ele>412.52</ele>
        <time>2003-06-29T09:45:39Z</time>
      </trkpt>
      <trkpt lat="43.53116" lon="5.86748">
        <ele>411.56</ele>
        <time>2003-06-29T09:45:45Z</time>
      </trkpt>
      <trkpt lat="43.53099" lon="5.8673">
        <ele>410.72</ele>
        <time>2003-06-29T09:45:51Z</time>
      </trkpt>
      <trkpt lat="43.53081" lon="5.86719">
        <ele>408.47</ele>
        <time>2003-06-29T09:45:56Z</time>
      </trkpt>
      <trkpt lat="43.53061" lon="5.86716">
        <ele>406.59</ele>
        <time>2003-06-29T09:46:00Z</time>
      </trkpt>
      <trkpt lat="43.53041" lon="5.86717">
        <ele>404.61</ele>
        <time>2003-06-29T09:46:04Z</time>
      </trkpt>
      <trkpt lat="43.53023" lon="5.86716">
        <ele>402.97</ele>
        <time>2003-06-29T09:46:08Z</time>
      </trkpt>
      <trkpt lat="43.52999" lon="5.86713">
        <ele>400.79</ele>
        <time>2003-06-29T09:46:13Z</time>
      </trkpt>
      <trkpt lat="43.5298" lon="5.86722">
        <ele>398.02</ele>
        <time>2003-06-29T09:46:18Z</time>
      </trkpt>
      <trkpt lat="43.52962" lon="5.86732">
        <ele>395.1</ele>
        <time>2003-06-29T09:46:23Z</time>
      </trkpt>
      <trkpt lat="43.52943" lon="5.86735">
        <ele>392.62</ele>
        <time>2003-06-29T09:46:27Z</time>
      </trkpt>
      <trkpt lat="43.52922" lon="5.86741">
        <ele>390.27</ele>
        <time>2003-06-29T09:46:32Z</time>
      </trkpt>
      <trkpt lat="43.52904" lon="5.86749">
        <ele>388.25</ele>
        <time>2003-06-29T09:46:37Z</time>
      </trkpt>
      <trkpt lat="43.52886" lon="5.86752">
        <ele>386.47</ele>
        <time>2003-06-29T09:46:41Z</time>
      </trkpt>
      <trkpt lat="43.52865" lon="5.86756">
        <ele>384.1</ele>
        <time>2003-06-29T09:46:46Z</time>
      </trkpt>
      <trkpt lat="43.52844" lon="5.8676">
        <ele>381.07</ele>
        <time>2003-06-29T09:46:52Z</time>
      </trkpt>
      <trkpt lat="43.52826" lon="5.86755">
        <ele>377.74</ele>
        <time>2003-06-29T09:46:59Z</time>
      </trkpt>
      <trkpt lat="43.52809" lon="5.86736">
        <ele>373.3</ele>
        <time>2003-06-29T09:47:07Z</time>
      </trkpt>
      <trkpt lat="43.52793" lon="5.86724">
        <ele>370.8</ele>
        <time>2003-06-29T09:47:12Z</time>
      </trkpt>
      <trkpt lat="43.52776" lon="5.86739">
        <ele>371.26</ele>
        <time>2003-06-29T09:48:00Z</time>
      </trkpt>
      <trkpt lat="43.5277" lon="5.86762">
        <ele>370.87</ele>
        <time>2003-06-29T09:48:08Z</time>
      </trkpt>
      <trkpt lat="43.52726" lon="5.86854">
        <ele>420.4</ele>
        <time>2003-06-29T09:48:26Z</time>
      </trkpt>
      <trkpt lat="43.5276" lon="5.86965">
        <ele>361.14</ele>
        <time>2003-06-29T09:48:41Z</time>
      </trkpt>
      <trkpt lat="43.52759" lon="5.86997">
        <ele>359.99</ele>
        <time>2003-06-29T09:48:45Z</time>
      </trkpt>
      <trkpt lat="43.52751" lon="5.87023">
        <ele>357.57</ele>
        <time>2003-06-29T09:48:50Z</time>
      </trkpt>
      <trkpt lat="43.52739" lon="5.87042">
        <ele>355.19</ele>
        <time>2003-06-29T09:48:55Z</time>
      </trkpt>
      <trkpt lat="43.52731" lon="5.87069">
        <ele>350.86</ele>
        <time>2003-06-29T09:49:02Z</time>
      </trkpt>
      <trkpt lat="43.52707" lon="5.8711">
        <ele>416.6</ele>
      </trkpt>
      <trkpt lat="43.52701" lon="5.87152">
        <ele>414.5</ele>
        <time>2003-06-29T09:49:14Z</time>
      </trkpt>
      <trkpt lat="43.52717" lon="5.87221">
        <ele>413.4</ele>
        <time>2003-06-29T09:49:33Z</time>
      </trkpt>
      <trkpt lat="43.52701" lon="5.87269">
        <ele>318.02</ele>
        <time>2003-06-29T09:49:36Z</time>
      </trkpt>
      <trkpt lat="43.52685" lon="5.87284">
        <ele>314.94</ele>
        <time>2003-06-29T09:49:39Z</time>
      </trkpt>
      <trkpt lat="43.52672" lon="5.87304">
        <ele>310.72</ele>
        <time>2003-06-29T09:49:43Z</time>
      </trkpt>
      <trkpt lat="43.52661" lon="5.87329">
        <ele>306.52</ele>
        <time>2003-06-29T09:49:47Z</time>
      </trkpt>
      <trkpt lat="43.52631" lon="5.8738">
        <ele>408.4</ele>
        <time>2003-06-29T09:49:51Z</time>
      </trkpt>
      <trkpt lat="43.52642" lon="5.87432">
        <ele>404.5</ele>
        <time>2003-06-29T09:50:02Z</time>
      </trkpt>
      <trkpt lat="43.52638" lon="5.87442">
        <ele>294.04</ele>
        <time>2003-06-29T09:50:05Z</time>
      </trkpt>
      <trkpt lat="43.52625" lon="5.87456">
        <ele>404.3</ele>
        <time>2003-06-29T09:50:10Z</time>
      </trkpt>
      <trkpt lat="43.52606" lon="5.87466">
        <ele>285.79</ele>
        <time>2003-06-29T09:50:15Z</time>
      </trkpt>
      <trkpt lat="43.52593" lon="5.87487">
        <ele>282.94</ele>
        <time>2003-06-29T09:50:19Z</time>
      </trkpt>
      <trkpt lat="43.52581" lon="5.87506">
        <ele>276.97</ele>
        <time>2003-06-29T09:50:27Z</time>
      </trkpt>
      <trkpt lat="43.52545" lon="5.87555">
        <ele>406.3</ele>
        <time>2003-06-29T09:50:32Z</time>
      </trkpt>
      <trkpt lat="43.5253" lon="5.87591">
        <ele>398</ele>
        <time>2003-06-29T09:50:36Z</time>
      </trkpt>
      <trkpt lat="43.52546" lon="5.87641">
        <ele>399</ele>
        <time>2003-06-29T09:50:45Z</time>
      </trkpt>
      <trkpt lat="43.52569" lon="5.877">
        <ele>398.5</ele>
        <time>2003-06-29T09:50:51Z</time>
      </trkpt>
      <trkpt lat="43.5257" lon="5.87769">
        <ele>397.7</ele>
        <time>2003-06-29T09:51:04Z</time>
      </trkpt>
      <trkpt lat="43.52555" lon="5.87829">
        <ele>390.4</ele>
        <time>2003-06-29T09:51:12Z</time>
      </trkpt>
      <trkpt lat="43.52559" lon="5.87895">
        <ele>243.78</ele>
        <time>2003-06-29T09:51:24Z</time>
      </trkpt>
      <trkpt lat="43.52529" lon="5.87935">
        <ele>387.9</ele>
        <time>2003-06-29T09:51:27Z</time>
      </trkpt>
      <trkpt lat="43.52502" lon="5.87938">
        <ele>387</ele>
        <time>2003-06-29T09:51:30Z</time>
      </trkpt>
      <trkpt lat="43.52491" lon="5.87926">
        <ele>387.8</ele>
        <time>2003-06-29T09:51:37Z</time>
      </trkpt>
      <trkpt lat="43.52452" lon="5.87897">
        <ele>384.8</ele>
        <time>2003-06-29T09:51:54Z</time>
      </trkpt>
      <trkpt lat="43.52426" lon="5.87901">
        <ele>384.9</ele>
        <time>2003-06-29T09:52:03Z</time>
      </trkpt>
      <trkpt lat="43.52406" lon="5.87943">
        <ele>383.8</ele>
        <time>2003-06-29T09:52:07Z</time>
      </trkpt>
      <trkpt lat="43.52403" lon="5.87989">
        <ele>224.66</ele>
        <time>2003-06-29T09:52:18Z</time>
      </trkpt>
      <trkpt lat="43.52399" lon="5.88031">
        <ele>382</ele>
        <time>2003-06-29T09:52:22Z</time>
      </trkpt>
      <trkpt lat="43.52375" lon="5.88042">
        <ele>379.7</ele>
        <time>2003-06-29T09:52:26Z</time>
      </trkpt>
      <trkpt lat="43.52339" lon="5.88029">
        <ele>377.6</ele>
      </trkpt>
      <trkpt lat="43.52298" lon="5.88014">
        <ele>377.9</ele>
        <time>2003-06-29T09:52:44Z</time>
      </trkpt>
      <trkpt lat="43.52276" lon="5.88023">
        <ele>377.8</ele>
        <time>2003-06-29T09:52:52Z</time>
      </trkpt>
      <trkpt lat="43.52251" lon="5.8806">
        <ele>375.5</ele>
        <time>2003-06-29T09:52:57Z</time>
      </trkpt>
      <trkpt lat="43.52238" lon="5.88116">
        <ele>220.95</ele>
        <time>2003-06-29T09:53:01Z</time>
      </trkpt>
      <trkpt lat="43.5223" lon="5.88125">
        <ele>375.4</ele>
        <time>2003-06-29T09:53:03Z</time>
      </trkpt>
      <trkpt lat="43.52211" lon="5.88151">
        <ele>374.2</ele>
      </trkpt>
      <trkpt lat="43.52183" lon="5.88168">
        <ele>371.6</ele>
      </trkpt>
      <trkpt lat="43.52161" lon="5.88168">
        <ele>371.4</ele>
      </trkpt>
      <trkpt lat="43.52123" lon="5.88155">
        <ele>371.4</ele>
        <time>2003-06-29T09:53:27Z</time>
      </trkpt>
      <trkpt lat="43.52041" lon="5.88207">
        <ele>370.8</ele>
        <time>2003-06-29T09:53:41Z</time>
      </trkpt>
      <trkpt lat="43.51996" lon="5.88222">
        <ele>367.9</ele>
        <time>2003-06-29T09:53:45Z</time>
      </trkpt>
      <trkpt lat="43.51973" lon="5.88206">
        <ele>366.6</ele>
        <time>2003-06-29T09:53:56Z</time>
      </trkpt>
      <trkpt lat="43.51938" lon="5.88183">
        <ele>367.3</ele>
        <time>2003-06-29T09:54:00Z</time>
      </trkpt>
      <trkpt lat="43.51886" lon="5.88197">
        <ele>363.5</ele>
      </trkpt>
      <trkpt lat="43.51846" lon="5.88204">
        <ele>363.4</ele>
      </trkpt>
      <trkpt lat="43.51819" lon="5.88225">
        <ele>224.38</ele>
        <time>2003-06-29T09:54:26Z</time>
      </trkpt>
      <trkpt lat="43.51789" lon="5.88257">
        <ele>226.34</ele>
        <time>2003-06-29T09:54:33Z</time>
      </trkpt>
      <trkpt lat="43.51751" lon="5.88299">
        <ele>358.1</ele>
        <time>2003-06-29T09:54:37Z</time>
      </trkpt>
      <trkpt lat="43.51734" lon="5.88285">
        <ele>359.3</ele>
        <time>2003-06-29T09:54:45Z</time>
      </trkpt>
      <trkpt lat="43.51698" lon="5.88258">
        <ele>235.87</ele>
        <time>2003-06-29T09:54:54Z</time>
      </trkpt>
      <trkpt lat="43.51675" lon="5.88291">
        <ele>357.9</ele>
        <time>2003-06-29T09:55:00Z</time>
      </trkpt>
      <trkpt lat="43.51659" lon="5.88311">
        <ele>240.71</ele>
        <time>2003-06-29T09:55:02Z</time>
      </trkpt>
      <trkpt lat="43.51643" lon="5.88335">
        <ele>355</ele>
      </trkpt>
      <trkpt lat="43.51619" lon="5.88342">
        <ele>352.6</ele>
        <time>2003-06-29T09:55:05Z</time>
      </trkpt>
      <trkpt lat="43.51586" lon="5.88268">
        <ele>262.15</ele>
        <time>2003-06-29T09:55:16Z</time>
      </trkpt>
      <trkpt lat="43.5157" lon="5.8825">
        <ele>265.08</ele>
        <time>2003-06-29T09:55:20Z</time>
      </trkpt>
      <trkpt lat="43.51549" lon="5.88247">
        <ele>267.45</ele>
        <time>2003-06-29T09:55:25Z</time>
      </trkpt>
      <trkpt lat="43.51535" lon="5.88263">
        <ele>269.09</ele>
        <time>2003-06-29T09:55:30Z</time>
      </trkpt>
      <trkpt lat="43.51524" lon="5.88283">
        <ele>270.62</ele>
        <time>2003-06-29T09:55:35Z</time>
      </trkpt>
      <trkpt lat="43.51512" lon="5.88306">
        <ele>271.69</ele>
        <time>2003-06-29T09:55:39Z</time>
      </trkpt>
      <trkpt lat="43.51496" lon="5.88323">
        <ele>273.11</ele>
        <time>2003-06-29T09:55:42Z</time>
      </trkpt>
      <trkpt lat="43.51474" lon="5.88344">
        <ele>276.66</ele>
        <time>2003-06-29T09:55:45Z</time>
      </trkpt>
      <trkpt lat="43.51454" lon="5.88356">
        <ele>280.19</ele>
        <time>2003-06-29T09:55:47Z</time>
      </trkpt>
      <trkpt lat="43.51432" lon="5.88353">
        <ele>281.99</ele>
        <time>2003-06-29T09:55:51Z</time>
      </trkpt>
      <trkpt lat="43.51415" lon="5.88333">
        <ele>283.12</ele>
        <time>2003-06-29T09:55:55Z</time>
      </trkpt>
      <trkpt lat="43.51399" lon="5.88315">
        <ele>284.4</ele>
        <time>2003-06-29T09:55:59Z</time>
      </trkpt>
      <trkpt lat="43.5138" lon="5.883">
        <ele>285.51</ele>
        <time>2003-06-29T09:56:03Z</time>
      </trkpt>
      <trkpt lat="43.5136" lon="5.88293">
        <ele>286.04</ele>
        <time>2003-06-29T09:56:07Z</time>
      </trkpt>
      <trkpt lat="43.51337" lon="5.88296">
        <ele>286.64</ele>
        <time>2003-06-29T09:56:11Z</time>
      </trkpt>
      <trkpt lat="43.51317" lon="5.88306">
        <ele>287.14</ele>
        <time>2003-06-29T09:56:15Z</time>
      </trkpt>
      <trkpt lat="43.51303" lon="5.88325">
        <ele>287.44</ele>
        <time>2003-06-29T09:56:20Z</time>
      </trkpt>
      <trkpt lat="43.51268" lon="5.88415">
        <ele>286.46</ele>
        <time>2003-06-29T09:56:36Z</time>
      </trkpt>
      <trkpt lat="43.51251" lon="5.88428">
        <ele>285.91</ele>
        <time>2003-06-29T09:56:42Z</time>
      </trkpt>
      <trkpt lat="43.5123" lon="5.88417">
        <ele>283.55</ele>
        <time>2003-06-29T09:56:48Z</time>
      </trkpt>
      <trkpt lat="43.51209" lon="5.88407">
        <ele>282.26</ele>
        <time>2003-06-29T09:56:52Z</time>
      </trkpt>
      <trkpt lat="43.51191" lon="5.88411">
        <ele>281.54</ele>
        <time>2003-06-29T09:56:55Z</time>
      </trkpt>
      <trkpt lat="43.51176" lon="5.88428">
        <ele>280.91</ele>
        <time>2003-06-29T09:56:59Z</time>
      </trkpt>
      <trkpt lat="43.51165" lon="5.88405">
        <ele>279.22</ele>
        <time>2003-06-29T09:57:06Z</time>
      </trkpt>
      <trkpt lat="43.51164" lon="5.88375">
        <ele>277.84</ele>
        <time>2003-06-29T09:57:11Z</time>
      </trkpt>
      <trkpt lat="43.5116" lon="5.88347">
        <ele>276.04</ele>
        <time>2003-06-29T09:57:16Z</time>
      </trkpt>
      <trkpt lat="43.51144" lon="5.88332">
        <ele>274.56</ele>
        <time>2003-06-29T09:57:21Z</time>
      </trkpt>
      <trkpt lat="43.51123" lon="5.88335">
        <ele>273.32</ele>
        <time>2003-06-29T09:57:25Z</time>
      </trkpt>
      <trkpt lat="43.51102" lon="5.88341">
        <ele>272.12</ele>
        <time>2003-06-29T09:57:29Z</time>
      </trkpt>
      <trkpt lat="43.51081" lon="5.88347">
        <ele>271.14</ele>
        <time>2003-06-29T09:57:33Z</time>
      </trkpt>
      <trkpt lat="43.5106" lon="5.88351">
        <ele>270.52</ele>
        <time>2003-06-29T09:57:37Z</time>
      </trkpt>
      <trkpt lat="43.51041" lon="5.88352">
        <ele>269.05</ele>
        <time>2003-06-29T09:57:41Z</time>
      </trkpt>
      <trkpt lat="43.51018" lon="5.88354">
        <ele>267.35</ele>
        <time>2003-06-29T09:57:46Z</time>
      </trkpt>
      <trkpt lat="43.51" lon="5.88357">
        <ele>266.04</ele>
        <time>2003-06-29T09:57:50Z</time>
      </trkpt>
      <trkpt lat="43.50982" lon="5.88361">
        <ele>264.68</ele>
        <time>2003-06-29T09:57:54Z</time>
      </trkpt>
      <trkpt lat="43.50962" lon="5.88373">
        <ele>262.47</ele>
        <time>2003-06-29T09:57:59Z</time>
      </trkpt>
      <trkpt lat="43.50943" lon="5.8838">
        <ele>260.27</ele>
        <time>2003-06-29T09:58:03Z</time>
      </trkpt>
      <trkpt lat="43.50919" lon="5.88385">
        <ele>258.49</ele>
        <time>2003-06-29T09:58:07Z</time>
      </trkpt>
      <trkpt lat="43.50897" lon="5.8839">
        <ele>256.57</ele>
        <time>2003-06-29T09:58:11Z</time>
      </trkpt>
      <trkpt lat="43.50877" lon="5.88392">
        <ele>254.97</ele>
        <time>2003-06-29T09:58:15Z</time>
      </trkpt>
      <trkpt lat="43.50858" lon="5.88397">
        <ele>253.07</ele>
        <time>2003-06-29T09:58:19Z</time>
      </trkpt>
      <trkpt lat="43.50838" lon="5.88398">
        <ele>252.5</ele>
        <time>2003-06-29T09:58:23Z</time>
      </trkpt>
      <trkpt lat="43.50821" lon="5.88386">
        <ele>253.34</ele>
        <time>2003-06-29T09:58:27Z</time>
      </trkpt>
      <trkpt lat="43.50817" lon="5.88361">
        <ele>253.88</ele>
        <time>2003-06-29T09:58:31Z</time>
      </trkpt>
      <trkpt lat="43.5082" lon="5.88329">
        <ele>253.49</ele>
        <time>2003-06-29T09:58:35Z</time>
      </trkpt>
      <trkpt lat="43.50814" lon="5.88303">
        <ele>252.94</ele>
        <time>2003-06-29T09:58:39Z</time>
      </trkpt>
      <trkpt lat="43.50797" lon="5.88293">
        <ele>252.14</ele>
        <time>2003-06-29T09:58:42Z</time>
      </trkpt>
      <trkpt lat="43.50774" lon="5.88292">
        <ele>250.92</ele>
        <time>2003-06-29T09:58:46Z</time>
      </trkpt>
      <trkpt lat="43.50755" lon="5.88302">
        <ele>250.29</ele>
        <time>2003-06-29T09:58:50Z</time>
      </trkpt>
      <trkpt lat="43.50741" lon="5.88322">
        <ele>251.31</ele>
        <time>2003-06-29T09:58:54Z</time>
      </trkpt>
      <trkpt lat="43.50735" lon="5.88346">
        <ele>251.65</ele>
        <time>2003-06-29T09:58:58Z</time>
      </trkpt>
      <trkpt lat="43.5072" lon="5.88371">
        <ele>252.45</ele>
        <time>2003-06-29T09:59:02Z</time>
      </trkpt>
      <trkpt lat="43.50706" lon="5.88387">
        <ele>253.59</ele>
        <time>2003-06-29T09:59:05Z</time>
      </trkpt>
      <trkpt lat="43.50694" lon="5.88409">
        <ele>254.62</ele>
        <time>2003-06-29T09:59:09Z</time>
      </trkpt>
      <trkpt lat="43.5068" lon="5.88426">
        <ele>255.7</ele>
        <time>2003-06-29T09:59:13Z</time>
      </trkpt>
      <trkpt lat="43.50659" lon="5.88438">
        <ele>257.48</ele>
        <time>2003-06-29T09:59:17Z</time>
      </trkpt>
      <trkpt lat="43.50639" lon="5.88448">
        <ele>258.49</ele>
        <time>2003-06-29T09:59:21Z</time>
      </trkpt>
      <trkpt lat="43.50616" lon="5.88457">
        <ele>257</ele>
        <time>2003-06-29T09:59:25Z</time>
      </trkpt>
      <trkpt lat="43.50595" lon="5.88462">
        <ele>256.13</ele>
        <time>2003-06-29T09:59:29Z</time>
      </trkpt>
      <trkpt lat="43.50578" lon="5.88475">
        <ele>255.75</ele>
        <time>2003-06-29T09:59:33Z</time>
      </trkpt>
      <trkpt lat="43.50562" lon="5.88495">
        <ele>255.85</ele>
        <time>2003-06-29T09:59:38Z</time>
      </trkpt>
      <trkpt lat="43.50548" lon="5.88511">
        <ele>256.06</ele>
        <time>2003-06-29T09:59:42Z</time>
      </trkpt>
      <trkpt lat="43.50534" lon="5.88529">
        <ele>256.92</ele>
        <time>2003-06-29T09:59:46Z</time>
      </trkpt>
      <trkpt lat="43.5052" lon="5.88548">
        <ele>257.26</ele>
        <time>2003-06-29T09:59:50Z</time>
      </trkpt>
      <trkpt lat="43.50504" lon="5.88568">
        <ele>256.81</ele>
        <time>2003-06-29T09:59:54Z</time>
      </trkpt>
      <trkpt lat="43.50486" lon="5.88583">
        <ele>256.08</ele>
        <time>2003-06-29T09:59:58Z</time>
      </trkpt>
      <trkpt lat="43.50467" lon="5.88594">
        <ele>255.3</ele>
        <time>2003-06-29T10:00:02Z</time>
      </trkpt>
      <trkpt lat="43.50446" lon="5.88607">
        <ele>254.34</ele>
        <time>2003-06-29T10:00:06Z</time>
      </trkpt>
      <trkpt lat="43.50426" lon="5.88618">
        <ele>253.8</ele>
        <time>2003-06-29T10:00:10Z</time>
      </trkpt>
      <trkpt lat="43.50408" lon="5.88629">
        <ele>253.02</ele>
        <time>2003-06-29T10:00:14Z</time>
      </trkpt>
      <trkpt lat="43.50391" lon="5.8864">
        <ele>252.67</ele>
        <time>2003-06-29T10:00:18Z</time>
      </trkpt>
      <trkpt lat="43.50375" lon="5.88654">
        <ele>251.81</ele>
        <time>2003-06-29T10:00:23Z</time>
      </trkpt>
      <trkpt lat="43.50363" lon="5.88678">
        <ele>249.9</ele>
        <time>2003-06-29T10:00:29Z</time>
      </trkpt>
    </trkseg>
  </trk>
</gpx>